Wetterdaten: Mittwoch, 10.09.2014
Datum Zeit Temp. Aussen +5cm Feuchte Auss Luftdruck Regen Sonnenschein Regendauer UV Solar Windben
10.09.2014 00:00 14,8 C 13,3 C 84 % 1020,3 hPa 0,0 l/m 0 min 0 min 0,0 UV-I 0 W/m 8,4 km/h (2 Bft)
10.09.2014 00:02 14,8 C 13,3 C 84 % 1020,3 hPa 0,0 l/m 0 min 0 min 0,0 UV-I 0 W/m 6,3 km/h (2 Bft)
10.09.2014 00:05 14,8 C 13,3 C 84 % 1020,3 hPa 0,0 l/m 0 min 0 min 0,0 UV-I 0 W/m 10,5 km/h (2 Bft)
10.09.2014 00:06 14,8 C 13,3 C 84 % 1020,3 hPa 0,0 l/m 0 min 0 min 0,0 UV-I 0 W/m 0,0 km/h (0 Bft)
10.09.2014 00:08 14,8 C 13,3 C 84 % 1020,3 hPa 0,0 l/m 0 min 0 min 0,0 UV-I 0 W/m 0,0 km/h (0 Bft)
10.09.2014 00:10 14,8 C 13,3 C 84 % 1020,3 hPa 0,0 l/m 0 min 0 min 0,0 UV-I 0 W/m 0,0 km/h (0 Bft)
10.09.2014 00:12 14,8 C 13,3 C 84 % 1020,3 hPa 0,0 l/m 0 min 0 min 0,0 UV-I 0 W/m 0,0 km/h (0 Bft)
10.09.2014 00:14 14,7 C 13,3 C 84 % 1020,3 hPa 0,0 l/m 0 min 0 min 0,0 UV-I 0 W/m 0,0 km/h (0 Bft)
10.09.2014 00:16 14,7 C 13,3 C 84 % 1020,3 hPa 0,0 l/m 0 min 0 min 0,0 UV-I 0 W/m 0,0 km/h (0 Bft)
10.09.2014 00:18 14,7 C 13,3 C 84 % 1020,3 hPa 0,0 l/m 0 min 0 min 0,0 UV-I 0 W/m 0,0 km/h (0 Bft)
10.09.2014 00:20 14,7 C 13,3 C 84 % 1020,4 hPa 0,0 l/m 0 min 0 min 0,0 UV-I 0 W/m 0,0 km/h (0 Bft)
10.09.2014 00:22 14,7 C 13,3 C 85 % 1020,3 hPa 0,0 l/m 0 min 0 min 0,0 UV-I 0 W/m 0,0 km/h (0 Bft)
10.09.2014 00:24 14,7 C 13,3 C 85 % 1020,4 hPa 0,0 l/m 0 min 0 min 0,0 UV-I 0 W/m 0,0 km/h (0 Bft)
10.09.2014 00:26 14,7 C 13,3 C 84 % 1020,4 hPa 0,0 l/m 0 min 0 min 0,0 UV-I 0 W/m 2,1 km/h (1 Bft)
10.09.2014 00:28 14,6 C 13,3 C 84 % 1020,4 hPa 0,0 l/m 0 min 0 min 0,0 UV-I 0 W/m 2,1 km/h (1 Bft)
10.09.2014 00:30 14,6 C 13,3 C 85 % 1020,4 hPa 0,0 l/m 0 min 0 min 0,0 UV-I 0 W/m 0,0 km/h (0 Bft)
10.09.2014 00:32 14,6 C 13,3 C 85 % 1020,4 hPa 0,0 l/m 0 min 0 min 0,0 UV-I 0 W/m 0,0 km/h (0 Bft)
10.09.2014 00:34 14,6 C 13,3 C 85 % 1020,4 hPa 0,0 l/m 0 min 0 min 0,0 UV-I 0 W/m 0,0 km/h (0 Bft)
10.09.2014 00:36 14,6 C 13,3 C 85 % 1020,4 hPa 0,0 l/m 0 min 0 min 0,0 UV-I 0 W/m 4,2 km/h (1 Bft)
10.09.2014 00:38 14,6 C 13,3 C 85 % 1020,3 hPa 0,0 l/m 0 min 0 min 0,0 UV-I 0 W/m 0,0 km/h (0 Bft)
10.09.2014 00:40 14,6 C 13,3 C 85 % 1020,4 hPa 0,0 l/m 0 min 0 min 0,0 UV-I 0 W/m 0,0 km/h (0 Bft)
10.09.2014 00:42 14,6 C 13,3 C 85 % 1020,4 hPa 0,0 l/m 0 min 0 min 0,0 UV-I 0 W/m 0,0 km/h (0 Bft)
10.09.2014 00:44 14,5 C 13,3 C 85 % 1020,4 hPa 0,0 l/m 0 min 0 min 0,0 UV-I 0 W/m 2,1 km/h (1 Bft)
10.09.2014 00:46 14,5 C 13,3 C 85 % 1020,4 hPa 0,0 l/m 0 min 0 min 0,0 UV-I 0 W/m 0,0 km/h (0 Bft)
10.09.2014 00:48 14,5 C 12,8 C 85 % 1020,4 hPa 0,0 l/m 0 min 0 min 0,0 UV-I 0 W/m 0,0 km/h (0 Bft)
10.09.2014 00:50 14,4 C 12,8 C 85 % 1020,4 hPa 0,0 l/m 0 min 0 min 0,0 UV-I 0 W/m 0,0 km/h (0 Bft)
10.09.2014 00:52 14,4 C 12,8 C 85 % 1020,4 hPa 0,0 l/m 0 min 0 min 0,0 UV-I 0 W/m 2,1 km/h (1 Bft)
10.09.2014 00:54 14,4 C 12,8 C 86 % 1020,4 hPa 0,0 l/m 0 min 0 min 0,0 UV-I 0 W/m 0,0 km/h (0 Bft)
10.09.2014 00:56 14,4 C 12,8 C 86 % 1020,5 hPa 0,0 l/m 0 min 0 min 0,0 UV-I 0 W/m 0,0 km/h (0 Bft)
10.09.2014 00:58 14,4 C 12,8 C 86 % 1020,4 hPa 0,0 l/m 0 min 0 min 0,0 UV-I 0 W/m 2,1 km/h (1 Bft)
10.09.2014 01:00 14,3 C 12,8 C 86 % 1020,4 hPa 0,0 l/m 0 min 0 min 0,0 UV-I 0 W/m 6,3 km/h (2 Bft)
10.09.2014 01:02 14,3 C 12,8 C 86 % 1020,4 hPa 0,0 l/m 0 min 0 min 0,0 UV-I 0 W/m 2,1 km/h (1 Bft)
10.09.2014 01:04 14,3 C 12,8 C 86 % 1020,4 hPa 0,0 l/m 0 min 0 min 0,0 UV-I 0 W/m 6,3 km/h (2 Bft)
10.09.2014 01:06 14,2 C 12,8 C 86 % 1020,4 hPa 0,0 l/m 0 min 0 min 0,0 UV-I 0 W/m 0,0 km/h (0 Bft)
10.09.2014 01:08 14,2 C 12,8 C 86 % 1020,3 hPa 0,0 l/m 0 min 0 min 0,0 UV-I 0 W/m 2,1 km/h (1 Bft)
10.09.2014 01:10 14,2 C 12,8 C 86 % 1020,4 hPa 0,0 l/m 0 min 0 min 0,0 UV-I 0 W/m 0,0 km/h (0 Bft)
10.09.2014 01:12 14,2 C 12,8 C 86 % 1020,4 hPa 0,0 l/m 0 min 0 min 0,0 UV-I 0 W/m 0,0 km/h (0 Bft)
10.09.2014 01:14 14,2 C 12,8 C 86 % 1020,4 hPa 0,0 l/m 0 min 0 min 0,0 UV-I 0 W/m 0,0 km/h (0 Bft)
10.09.2014 01:16 14,2 C 12,8 C 86 % 1020,4 hPa 0,0 l/m 0 min 0 min 0,0 UV-I 0 W/m 0,0 km/h (0 Bft)
10.09.2014 01:18 14,2 C 12,8 C 86 % 1020,4 hPa 0,0 l/m 0 min 0 min 0,0 UV-I 0 W/m 0,0 km/h (0 Bft)
10.09.2014 01:20 14,2 C 12,8 C 86 % 1020,4 hPa 0,0 l/m 0 min 0 min 0,0 UV-I 0 W/m 0,0 km/h (0 Bft)
10.09.2014 01:22 14,2 C 12,8 C 87 % 1020,4 hPa 0,0 l/m 0 min 0 min 0,0 UV-I 0 W/m 0,0 km/h (0 Bft)
10.09.2014 01:24 14,2 C 12,8 C 87 % 1020,4 hPa 0,0 l/m 0 min 0 min 0,0 UV-I 0 W/m 0,0 km/h (0 Bft)
10.09.2014 01:26 14,2 C 12,8 C 87 % 1020,4 hPa 0,0 l/m 0 min 0 min 0,0 UV-I 0 W/m 2,1 km/h (1 Bft)
10.09.2014 01:28 14,2 C 12,8 C 89 % 1020,4 hPa 0,0 l/m 0 min 0 min 0,0 UV-I 0 W/m 0,0 km/h (0 Bft)
10.09.2014 01:30 14,1 C 12,8 C 87 % 1020,3 hPa 0,0 l/m 0 min 0 min 0,0 UV-I 0 W/m 0,0 km/h (0 Bft)
10.09.2014 01:32 14,1 C 12,8 C 87 % 1020,4 hPa 0,0 l/m 0 min 0 min 0,0 UV-I 0 W/m 0,0 km/h (0 Bft)
10.09.2014 01:34 14,1 C 12,8 C 87 % 1020,4 hPa 0,0 l/m 0 min 0 min 0,0 UV-I 0 W/m 2,1 km/h (1 Bft)
10.09.2014 01:36 14,1 C 12,8 C 87 % 1020,4 hPa 0,0 l/m 0 min 0 min 0,0 UV-I 0 W/m 0,0 km/h (0 Bft)
10.09.2014 01:38 14,0 C 12,8 C 87 % 1020,4 hPa 0,0 l/m 0 min 0 min 0,0 UV-I 0 W/m 0,0 km/h (0 Bft)
10.09.2014 01:40 14,0 C 12,8 C 87 % 1020,4 hPa 0,0 l/m 0 min 0 min 0,0 UV-I 0 W/m 2,1 km/h (1 Bft)
10.09.2014 01:42 13,9 C 12,8 C 88 % 1020,4 hPa 0,0 l/m 0 min 0 min 0,0 UV-I 0 W/m 0,0 km/h (0 Bft)
10.09.2014 01:44 13,9 C 12,8 C 88 % 1020,4 hPa 0,0 l/m 0 min 0 min 0,0 UV-I 0 W/m 0,0 km/h (0 Bft)
10.09.2014 01:46 13,9 C 12,8 C 88 % 1020,3 hPa 0,0 l/m 0 min 0 min 0,0 UV-I 0 W/m 0,0 km/h (0 Bft)
10.09.2014 01:48 13,9 C 12,8 C 88 % 1020,4 hPa 0,0 l/m 0 min 0 min 0,0 UV-I 0 W/m 0,0 km/h (0 Bft)
10.09.2014 01:50 13,9 C 12,2 C 88 % 1020,3 hPa 0,0 l/m 0 min 0 min 0,0 UV-I 0 W/m 0,0 km/h (0 Bft)
10.09.2014 01:52 13,9 C 12,8 C 88 % 1020,3 hPa 0,0 l/m 0 min 0 min 0,0 UV-I 0 W/m 0,0 km/h (0 Bft)
10.09.2014 01:54 13,9 C 12,2 C 88 % 1020,4 hPa 0,0 l/m 0 min 0 min 0,0 UV-I 0 W/m 0,0 km/h (0 Bft)
10.09.2014 01:56 13,8 C 12,2 C 88 % 1020,3 hPa 0,0 l/m 0 min 0 min 0,0 UV-I 0 W/m 0,0 km/h (0 Bft)
10.09.2014 01:58 13,8 C 12,2 C 88 % 1020,4 hPa 0,0 l/m 0 min 0 min 0,0 UV-I 0 W/m 0,0 km/h (0 Bft)
10.09.2014 02:00 13,8 C 12,2 C 88 % 1020,3 hPa 0,0 l/m 0 min 0 min 0,0 UV-I 0 W/m 0,0 km/h (0 Bft)
10.09.2014 02:02 13,8 C 12,2 C 88 % 1020,3 hPa 0,0 l/m 0 min 0 min 0,0 UV-I 0 W/m 0,0 km/h (0 Bft)
10.09.2014 02:04 13,8 C 12,2 C 88 % 1020,3 hPa 0,0 l/m 0 min 0 min 0,0 UV-I 0 W/m 0,0 km/h (0 Bft)
10.09.2014 02:06 13,8 C 12,2 C 88 % 1020,3 hPa 0,0 l/m 0 min 0 min 0,0 UV-I 0 W/m 0,0 km/h (0 Bft)
10.09.2014 02:08 13,7 C 12,2 C 88 % 1020,3 hPa 0,0 l/m 0 min 0 min 0,0 UV-I 0 W/m 0,0 km/h (0 Bft)
10.09.2014 02:10 13,7 C 12,2 C 89 % 1020,3 hPa 0,0 l/m 0 min 0 min 0,0 UV-I 0 W/m 0,0 km/h (0 Bft)
10.09.2014 02:12 13,7 C 12,2 C 89 % 1020,2 hPa 0,0 l/m 0 min 0 min 0,0 UV-I 0 W/m 0,0 km/h (0 Bft)
10.09.2014 02:14 13,7 C 12,2 C 89 % 1020,2 hPa 0,0 l/m 0 min 0 min 0,0 UV-I 0 W/m 0,0 km/h (0 Bft)
10.09.2014 02:16 13,7 C 12,2 C 89 % 1020,2 hPa 0,0 l/m 0 min 0 min 0,0 UV-I 0 W/m 0,0 km/h (0 Bft)
10.09.2014 02:18 13,7 C 12,2 C 89 % 1020,2 hPa 0,0 l/m 0 min 0 min 0,0 UV-I 0 W/m 0,0 km/h (0 Bft)
10.09.2014 02:20 13,7 C 12,2 C 89 % 1020,2 hPa 0,0 l/m 0 min 0 min 0,0 UV-I 0 W/m 0,0 km/h (0 Bft)
10.09.2014 02:22 13,7 C 12,2 C 89 % 1020,2 hPa 0,0 l/m 0 min 0 min 0,0 UV-I 0 W/m 0,0 km/h (0 Bft)
10.09.2014 02:24 13,6 C 12,2 C 89 % 1020,1 hPa 0,0 l/m 0 min 0 min 0,0 UV-I 0 W/m 0,0 km/h (0 Bft)
10.09.2014 02:26 13,6 C 12,2 C 89 % 1020,1 hPa 0,0 l/m 0 min 0 min 0,0 UV-I 0 W/m 0,0 km/h (0 Bft)
10.09.2014 02:28 13,6 C 12,2 C 89 % 1020,1 hPa 0,0 l/m 0 min 0 min 0,0 UV-I 0 W/m 0,0 km/h (0 Bft)
10.09.2014 02:30 13,6 C 12,2 C 89 % 1020,1 hPa 0,0 l/m 0 min 0 min 0,0 UV-I 0 W/m 0,0 km/h (0 Bft)
10.09.2014 02:32 13,6 C 12,2 C 89 % 1020,1 hPa 0,0 l/m 0 min 0 min 0,0 UV-I 0 W/m 0,0 km/h (0 Bft)
10.09.2014 02:34 13,6 C 12,2 C 89 % 1020,1 hPa 0,0 l/m 0 min 0 min 0,0 UV-I 0 W/m 0,0 km/h (0 Bft)
10.09.2014 02:36 13,6 C 12,2 C 89 % 1020,1 hPa 0,0 l/m 0 min 0 min 0,0 UV-I 0 W/m 0,0 km/h (0 Bft)
10.09.2014 02:38 13,6 C 12,2 C 89 % 1020,1 hPa 0,0 l/m 0 min 0 min 0,0 UV-I 0 W/m 0,0 km/h (0 Bft)
10.09.2014 02:40 13,6 C 12,2 C 89 % 1020,1 hPa 0,0 l/m 0 min 0 min 0,0 UV-I 0 W/m 0,0 km/h (0 Bft)
10.09.2014 02:42 13,5 C 12,2 C 89 % 1020,1 hPa 0,0 l/m 0 min 0 min 0,0 UV-I 0 W/m 0,0 km/h (0 Bft)
10.09.2014 02:44 13,5 C 12,2 C 89 % 1020,1 hPa 0,0 l/m 0 min 0 min 0,0 UV-I 0 W/m 0,0 km/h (0 Bft)
10.09.2014 02:46 13,5 C 12,2 C 90 % 1020,1 hPa 0,0 l/m 0 min 0 min 0,0 UV-I 0 W/m 0,0 km/h (0 Bft)
10.09.2014 02:48 13,5 C 12,2 C 90 % 1020,1 hPa 0,0 l/m 0 min 0 min 0,0 UV-I 0 W/m 0,0 km/h (0 Bft)
10.09.2014 02:50 13,5 C 12,2 C 90 % 1020,1 hPa 0,0 l/m 0 min 0 min 0,0 UV-I 0 W/m 0,0 km/h (0 Bft)
10.09.2014 02:52 13,4 C 12,2 C 90 % 1020,1 hPa 0,0 l/m 0 min 0 min 0,0 UV-I 0 W/m 0,0 km/h (0 Bft)
10.09.2014 02:54 13,4 C 12,2 C 90 % 1020,1 hPa 0,0 l/m 0 min 0 min 0,0 UV-I 0 W/m 0,0 km/h (0 Bft)
10.09.2014 02:56 13,4 C 12,2 C 90 % 1020,1 hPa 0,0 l/m 0 min 0 min 0,0 UV-I 0 W/m 0,0 km/h (0 Bft)
10.09.2014 02:58 13,4 C 12,2 C 90 % 1020,0 hPa 0,0 l/m 0 min 0 min 0,0 UV-I 0 W/m 0,0 km/h (0 Bft)
10.09.2014 03:00 13,4 C 12,2 C 90 % 1020,0 hPa 0,0 l/m 0 min 0 min 0,0 UV-I 0 W/m 0,0 km/h (0 Bft)
10.09.2014 03:02 13,4 C 12,2 C 90 % 1020,1 hPa 0,0 l/m 0 min 0 min 0,0 UV-I 0 W/m 0,0 km/h (0 Bft)
10.09.2014 03:04 13,4 C 12,2 C 90 % 1020,0 hPa 0,0 l/m 0 min 0 min 0,0 UV-I 0 W/m 0,0 km/h (0 Bft)
10.09.2014 03:06 13,3 C 12,2 C 90 % 1020,0 hPa 0,0 l/m 0 min 0 min 0,0 UV-I 0 W/m 0,0 km/h (0 Bft)
10.09.2014 03:08 13,3 C 12,2 C 90 % 1020,0 hPa 0,0 l/m 0 min 0 min 0,0 UV-I 0 W/m 0,0 km/h (0 Bft)
10.09.2014 03:10 13,3 C 12,2 C 90 % 1020,0 hPa 0,0 l/m 0 min 0 min 0,0 UV-I 0 W/m 0,0 km/h (0 Bft)
10.09.2014 03:12 13,3 C 12,2 C 90 % 1020,0 hPa 0,0 l/m 0 min 0 min 0,0 UV-I 0 W/m 0,0 km/h (0 Bft)
10.09.2014 03:14 13,3 C 12,2 C 90 % 1020,0 hPa 0,0 l/m 0 min 0 min 0,0 UV-I 0 W/m 0,0 km/h (0 Bft)
10.09.2014 03:16 13,3 C 12,2 C 90 % 1020,0 hPa 0,0 l/m 0 min 0 min 0,0 UV-I 0 W/m 0,0 km/h (0 Bft)
10.09.2014 03:18 13,3 C 12,2 C 90 % 1020,0 hPa 0,0 l/m 0 min 0 min 0,0 UV-I 0 W/m 0,0 km/h (0 Bft)
10.09.2014 03:20 13,3 C 12,2 C 90 % 1019,9 hPa 0,0 l/m 0 min 0 min 0,0 UV-I 0 W/m 0,0 km/h (0 Bft)
10.09.2014 03:22 13,3 C 12,2 C 90 % 1019,9 hPa 0,0 l/m 0 min 0 min 0,0 UV-I 0 W/m 0,0 km/h (0 Bft)
10.09.2014 03:24 13,3 C 12,2 C 90 % 1019,9 hPa 0,0 l/m 0 min 0 min 0,0 UV-I 0 W/m 0,0 km/h (0 Bft)
10.09.2014 03:26 13,3 C 12,2 C 90 % 1019,9 hPa 0,0 l/m 0 min 0 min 0,0 UV-I 0 W/m 0,0 km/h (0 Bft)
10.09.2014 03:28 13,3 C 12,2 C 90 % 1019,9 hPa 0,0 l/m 0 min 0 min 0,0 UV-I 0 W/m 0,0 km/h (0 Bft)
10.09.2014 03:30 13,2 C 12,2 C 90 % 1019,9 hPa 0,0 l/m 0 min 0 min 0,0 UV-I 0 W/m 0,0 km/h (0 Bft)
10.09.2014 03:32 13,3 C 12,2 C 90 % 1019,9 hPa 0,0 l/m 0 min 0 min 0,0 UV-I 0 W/m 0,0 km/h (0 Bft)
10.09.2014 03:34 13,2 C 12,2 C 91 % 1019,9 hPa 0,0 l/m 0 min 0 min 0,0 UV-I 0 W/m 0,0 km/h (0 Bft)
10.09.2014 03:36 13,2 C 12,2 C 91 % 1019,9 hPa 0,0 l/m 0 min 0 min 0,0 UV-I 0 W/m 0,0 km/h (0 Bft)
10.09.2014 03:38 13,2 C 12,2 C 91 % 1019,9 hPa 0,0 l/m 0 min 0 min 0,0 UV-I 0 W/m 0,0 km/h (0 Bft)
10.09.2014 03:40 13,2 C 12,2 C 91 % 1019,9 hPa 0,0 l/m 0 min 0 min 0,0 UV-I 0 W/m 0,0 km/h (0 Bft)
10.09.2014 03:42 13,2 C 12,2 C 91 % 1019,9 hPa 0,0 l/m 0 min 0 min 0,0 UV-I 0 W/m 0,0 km/h (0 Bft)
10.09.2014 03:44 13,2 C 12,2 C 91 % 1019,9 hPa 0,0 l/m 0 min 0 min 0,0 UV-I 0 W/m 0,0 km/h (0 Bft)
10.09.2014 03:46 13,2 C 12,2 C 91 % 1019,9 hPa 0,0 l/m 0 min 0 min 0,0 UV-I 0 W/m 0,0 km/h (0 Bft)
10.09.2014 03:48 13,2 C 12,2 C 91 % 1019,9 hPa 0,0 l/m 0 min 0 min 0,0 UV-I 0 W/m 0,0 km/h (0 Bft)
10.09.2014 03:50 13,2 C 12,2 C 91 % 1020,0 hPa 0,0 l/m 0 min 0 min 0,0 UV-I 0 W/m 0,0 km/h (0 Bft)
10.09.2014 03:52 13,2 C 12,2 C 91 % 1019,9 hPa 0,0 l/m 0 min 0 min 0,0 UV-I 0 W/m 0,0 km/h (0 Bft)
10.09.2014 03:54 13,2 C 12,2 C 91 % 1019,9 hPa 0,0 l/m 0 min 0 min 0,0 UV-I 0 W/m 0,0 km/h (0 Bft)
10.09.2014 03:56 13,2 C 12,2 C 91 % 1019,9 hPa 0,0 l/m 0 min 0 min 0,0 UV-I 0 W/m 0,0 km/h (0 Bft)
10.09.2014 03:58 13,2 C 12,2 C 91 % 1019,9 hPa 0,0 l/m 0 min 0 min 0,0 UV-I 0 W/m 0,0 km/h (0 Bft)
10.09.2014 04:00 13,2 C 12,2 C 91 % 1019,9 hPa 0,0 l/m 0 min 0 min 0,0 UV-I 0 W/m 0,0 km/h (0 Bft)
10.09.2014 04:02 13,1 C 12,2 C 91 % 1019,9 hPa 0,0 l/m 0 min 0 min 0,0 UV-I 0 W/m 0,0 km/h (0 Bft)
10.09.2014 04:04 13,2 C 12,2 C 91 % 1019,9 hPa 0,0 l/m 0 min 0 min 0,0 UV-I 0 W/m 0,0 km/h (0 Bft)
10.09.2014 04:06 13,1 C 12,2 C 91 % 1019,9 hPa 0,0 l/m 0 min 0 min 0,0 UV-I 0 W/m 0,0 km/h (0 Bft)
10.09.2014 04:08 13,1 C 12,2 C 91 % 1019,9 hPa 0,0 l/m 0 min 0 min 0,0 UV-I 0 W/m 0,0 km/h (0 Bft)
10.09.2014 04:10 13,1 C 12,2 C 91 % 1019,9 hPa 0,0 l/m 0 min 0 min 0,0 UV-I 0 W/m 0,0 km/h (0 Bft)
10.09.2014 04:12 13,1 C 12,2 C 91 % 1019,9 hPa 0,0 l/m 0 min 0 min 0,0 UV-I 0 W/m 0,0 km/h (0 Bft)
10.09.2014 04:14 13,1 C 12,2 C 91 % 1019,9 hPa 0,0 l/m 0 min 0 min 0,0 UV-I 0 W/m 0,0 km/h (0 Bft)
10.09.2014 04:16 13,1 C 12,2 C 91 % 1019,9 hPa 0,0 l/m 0 min 0 min 0,0 UV-I 0 W/m 0,0 km/h (0 Bft)
10.09.2014 04:18 13,1 C 12,2 C 91 % 1019,8 hPa 0,0 l/m 0 min 0 min 0,0 UV-I 0 W/m 0,0 km/h (0 Bft)
10.09.2014 04:20 13,1 C 12,2 C 91 % 1019,8 hPa 0,0 l/m 0 min 0 min 0,0 UV-I 0 W/m 0,0 km/h (0 Bft)
10.09.2014 04:22 13,1 C 12,2 C 91 % 1019,8 hPa 0,0 l/m 0 min 0 min 0,0 UV-I 0 W/m 0,0 km/h (0 Bft)
10.09.2014 04:24 13,1 C 12,2 C 91 % 1019,8 hPa 0,0 l/m 0 min 0 min 0,0 UV-I 0 W/m 0,0 km/h (0 Bft)
10.09.2014 04:26 13,1 C 12,2 C 92 % 1019,8 hPa 0,0 l/m 0 min 0 min 0,0 UV-I 0 W/m 0,0 km/h (0 Bft)
10.09.2014 04:28 13,1 C 12,2 C 92 % 1019,9 hPa 0,0 l/m 0 min 0 min 0,0 UV-I 0 W/m 0,0 km/h (0 Bft)
10.09.2014 04:30 13,1 C 12,2 C 92 % 1019,8 hPa 0,0 l/m 0 min 0 min 0,0 UV-I 0 W/m 0,0 km/h (0 Bft)
10.09.2014 04:32 13,1 C 12,2 C 92 % 1019,8 hPa 0,0 l/m 0 min 0 min 0,0 UV-I 0 W/m 0,0 km/h (0 Bft)
10.09.2014 04:34 13,1 C 12,2 C 92 % 1019,8 hPa 0,0 l/m 0 min 0 min 0,0 UV-I 0 W/m 0,0 km/h (0 Bft)
10.09.2014 04:36 13,1 C 12,2 C 92 % 1019,9 hPa 0,0 l/m 0 min 0 min 0,0 UV-I 0 W/m 0,0 km/h (0 Bft)
10.09.2014 04:38 13,1 C 12,2 C 92 % 1019,9 hPa 0,0 l/m 0 min 0 min 0,0 UV-I 0 W/m 0,0 km/h (0 Bft)
10.09.2014 04:40 13,1 C 12,2 C 92 % 1019,9 hPa 0,0 l/m 0 min 0 min 0,0 UV-I 0 W/m 0,0 km/h (0 Bft)
10.09.2014 04:42 13,1 C 12,2 C 92 % 1019,9 hPa 0,0 l/m 0 min 0 min 0,0 UV-I 0 W/m 0,0 km/h (0 Bft)
10.09.2014 04:44 13,1 C 12,2 C 92 % 1019,9 hPa 0,0 l/m 0 min 0 min 0,0 UV-I 0 W/m 0,0 km/h (0 Bft)
10.09.2014 04:46 13,1 C 12,2 C 92 % 1019,9 hPa 0,0 l/m 0 min 0 min 0,0 UV-I 0 W/m 0,0 km/h (0 Bft)
10.09.2014 04:48 13,1 C 12,2 C 92 % 1019,9 hPa 0,0 l/m 0 min 0 min 0,0 UV-I 0 W/m 0,0 km/h (0 Bft)
10.09.2014 04:50 13,1 C 12,2 C 92 % 1019,9 hPa 0,0 l/m 0 min 0 min 0,0 UV-I 0 W/m 0,0 km/h (0 Bft)
10.09.2014 04:52 13,1 C 12,2 C 92 % 1019,9 hPa 0,0 l/m 0 min 0 min 0,0 UV-I 0 W/m 0,0 km/h (0 Bft)
10.09.2014 04:54 13,1 C 12,2 C 92 % 1019,9 hPa 0,0 l/m 0 min 0 min 0,0 UV-I 0 W/m 0,0 km/h (0 Bft)
10.09.2014 04:56 13,1 C 12,2 C 92 % 1020,0 hPa 0,0 l/m 0 min 0 min 0,0 UV-I 0 W/m 4,2 km/h (1 Bft)
10.09.2014 04:58 13,1 C 12,2 C 92 % 1020,1 hPa 0,0 l/m 0 min 0 min 0,0 UV-I 0 W/m 2,1 km/h (1 Bft)
10.09.2014 05:00 13,1 C 12,2 C 92 % 1020,0 hPa 0,0 l/m 0 min 0 min 0,0 UV-I 0 W/m 0,0 km/h (0 Bft)
10.09.2014 05:02 13,1 C 12,2 C 92 % 1020,0 hPa 0,0 l/m 0 min 0 min 0,0 UV-I 0 W/m 0,0 km/h (0 Bft)
10.09.2014 05:04 13,1 C 12,2 C 93 % 1019,9 hPa 0,0 l/m 0 min 0 min 0,0 UV-I 0 W/m 0,0 km/h (0 Bft)
10.09.2014 05:06 13,1 C 12,2 C 93 % 1019,9 hPa 0,0 l/m 0 min 0 min 0,0 UV-I 0 W/m 2,1 km/h (1 Bft)
10.09.2014 05:08 13,1 C 12,2 C 93 % 1019,9 hPa 0,0 l/m 0 min 0 min 0,0 UV-I 0 W/m 0,0 km/h (0 Bft)
10.09.2014 05:10 13,1 C 12,2 C 93 % 1019,9 hPa 0,0 l/m 0 min 0 min 0,0 UV-I 0 W/m 0,0 km/h (0 Bft)
10.09.2014 05:12 13,1 C 12,2 C 93 % 1019,9 hPa 0,0 l/m 0 min 0 min 0,0 UV-I 0 W/m 0,0 km/h (0 Bft)
10.09.2014 05:14 13,1 C 12,2 C 93 % 1019,9 hPa 0,0 l/m 0 min 0 min 0,0 UV-I 0 W/m 0,0 km/h (0 Bft)
10.09.2014 05:16 13,1 C 12,2 C 93 % 1019,9 hPa 0,0 l/m 0 min 0 min 0,0 UV-I 0 W/m 4,2 km/h (1 Bft)
10.09.2014 05:18 13,1 C 12,2 C 93 % 1019,9 hPa 0,0 l/m 0 min 0 min 0,0 UV-I 0 W/m 0,0 km/h (0 Bft)
10.09.2014 05:20 13,1 C 12,2 C 93 % 1019,9 hPa 0,0 l/m 0 min 0 min 0,0 UV-I 0 W/m 2,1 km/h (1 Bft)
10.09.2014 05:22 13,1 C 12,2 C 93 % 1019,9 hPa 0,0 l/m 0 min 0 min 0,0 UV-I 0 W/m 0,0 km/h (0 Bft)
10.09.2014 05:24 13,1 C 12,2 C 93 % 1019,9 hPa 0,0 l/m 0 min 0 min 0,0 UV-I 0 W/m 0,0 km/h (0 Bft)
10.09.2014 05:26 13,1 C 12,2 C 93 % 1019,9 hPa 0,0 l/m 0 min 0 min 0,0 UV-I 0 W/m 0,0 km/h (0 Bft)
10.09.2014 05:28 13,1 C 12,2 C 93 % 1019,9 hPa 0,0 l/m 0 min 0 min 0,0 UV-I 0 W/m 0,0 km/h (0 Bft)
10.09.2014 05:30 13,1 C 12,2 C 93 % 1019,9 hPa 0,0 l/m 0 min 0 min 0,0 UV-I 0 W/m 0,0 km/h (0 Bft)
10.09.2014 05:32 13,1 C 12,2 C 93 % 1019,9 hPa 0,0 l/m 0 min 0 min 0,0 UV-I 0 W/m 2,1 km/h (1 Bft)
10.09.2014 05:34 13,1 C 12,2 C 93 % 1019,9 hPa 0,0 l/m 0 min 0 min 0,0 UV-I 0 W/m 0,0 km/h (0 Bft)
10.09.2014 05:36 13,1 C 12,2 C 93 % 1019,9 hPa 0,0 l/m 0 min 0 min 0,0 UV-I 0 W/m 0,0 km/h (0 Bft)
10.09.2014 05:38 13,1 C 12,2 C 93 % 1019,9 hPa 0,0 l/m 0 min 0 min 0,0 UV-I 0 W/m 0,0 km/h (0 Bft)
10.09.2014 05:40 13,1 C 12,2 C 93 % 1019,9 hPa 0,0 l/m 0 min 0 min 0,0 UV-I 0 W/m 0,0 km/h (0 Bft)
10.09.2014 05:42 13,1 C 12,2 C 93 % 1019,9 hPa 0,0 l/m 0 min 0 min 0,0 UV-I 0 W/m 0,0 km/h (0 Bft)
10.09.2014 05:44 13,1 C 12,2 C 93 % 1019,9 hPa 0,0 l/m 0 min 0 min 0,0 UV-I 0 W/m 0,0 km/h (0 Bft)
10.09.2014 05:46 13,1 C 12,2 C 93 % 1019,9 hPa 0,0 l/m 0 min 0 min 0,0 UV-I 0 W/m 0,0 km/h (0 Bft)
10.09.2014 05:48 13,1 C 12,2 C 93 % 1019,9 hPa 0,0 l/m 0 min 0 min 0,0 UV-I 0 W/m 0,0 km/h (0 Bft)
10.09.2014 05:50 13,1 C 12,2 C 93 % 1019,9 hPa 0,0 l/m 0 min 0 min 0,0 UV-I 0 W/m 0,0 km/h (0 Bft)
10.09.2014 05:52 13,1 C 12,2 C 93 % 1019,8 hPa 0,0 l/m 0 min 0 min 0,0 UV-I 0 W/m 0,0 km/h (0 Bft)
10.09.2014 05:54 13,1 C 12,2 C 93 % 1019,8 hPa 0,0 l/m 0 min 0 min 0,0 UV-I 0 W/m 4,2 km/h (1 Bft)
10.09.2014 05:56 13,1 C 12,2 C 93 % 1019,8 hPa 0,0 l/m 0 min 0 min 0,0 UV-I 0 W/m 0,0 km/h (0 Bft)
10.09.2014 05:58 13,1 C 12,2 C 93 % 1019,8 hPa 0,0 l/m 0 min 0 min 0,0 UV-I 0 W/m 0,0 km/h (0 Bft)
10.09.2014 06:00 13,1 C 12,2 C 93 % 1019,7 hPa 0,0 l/m 0 min 0 min 0,0 UV-I 0 W/m 2,1 km/h (1 Bft)
10.09.2014 06:02 13,1 C 12,2 C 93 % 1019,7 hPa 0,0 l/m 0 min 0 min 0,0 UV-I 0 W/m 0,0 km/h (0 Bft)
10.09.2014 06:06 13,1 C 12,2 C 93 % 1019,8 hPa 0,0 l/m 0 min 0 min 0,0 UV-I 0 W/m 0,0 km/h (0 Bft)
10.09.2014 06:08 13,1 C 12,2 C 93 % 1019,8 hPa 0,0 l/m 0 min 0 min 0,0 UV-I 0 W/m 0,0 km/h (0 Bft)
10.09.2014 06:10 13,1 C 12,2 C 93 % 1019,7 hPa 0,0 l/m 0 min 0 min 0,0 UV-I 0 W/m 0,0 km/h (0 Bft)
10.09.2014 06:12 13,0 C 12,2 C 93 % 1019,7 hPa 0,0 l/m 0 min 0 min 0,0 UV-I 0 W/m 0,0 km/h (0 Bft)
10.09.2014 06:14 13,0 C 12,2 C 93 % 1019,7 hPa 0,0 l/m 0 min 0 min 0,0 UV-I 0 W/m 0,0 km/h (0 Bft)
10.09.2014 06:16 13,0 C 12,2 C 93 % 1019,8 hPa 0,0 l/m 0 min 0 min 0,0 UV-I 0 W/m 0,0 km/h (0 Bft)
10.09.2014 06:18 13,0 C 12,2 C 93 % 1019,8 hPa 0,0 l/m 0 min 0 min 0,0 UV-I 0 W/m 0,0 km/h (0 Bft)
10.09.2014 06:20 13,0 C 12,2 C 93 % 1019,8 hPa 0,0 l/m 0 min 0 min 0,0 UV-I 0 W/m 0,0 km/h (0 Bft)
10.09.2014 06:22 13,0 C 12,2 C 93 % 1019,8 hPa 0,0 l/m 0 min 0 min 0,0 UV-I 0 W/m 0,0 km/h (0 Bft)
10.09.2014 06:24 13,0 C 12,2 C 93 % 1019,8 hPa 0,0 l/m 0 min 0 min 0,0 UV-I 0 W/m 0,0 km/h (0 Bft)
10.09.2014 06:26 13,0 C 12,2 C 93 % 1019,8 hPa 0,0 l/m 0 min 0 min 0,0 UV-I 0 W/m 0,0 km/h (0 Bft)
10.09.2014 06:28 13,0 C 12,2 C 93 % 1019,8 hPa 0,0 l/m 0 min 0 min 0,0 UV-I 0 W/m 0,0 km/h (0 Bft)
10.09.2014 06:30 13,0 C 12,2 C 93 % 1019,8 hPa 0,0 l/m 0 min 0 min 0,0 UV-I 0 W/m 0,0 km/h (0 Bft)
10.09.2014 06:32 13,0 C 12,2 C 93 % 1019,8 hPa 0,0 l/m 0 min 0 min 0,0 UV-I 0 W/m 0,0 km/h (0 Bft)
10.09.2014 06:34 13,0 C 12,2 C 93 % 1019,8 hPa 0,0 l/m 0 min 0 min 0,0 UV-I 0 W/m 0,0 km/h (0 Bft)
10.09.2014 06:36 13,0 C 12,2 C 93 % 1019,8 hPa 0,0 l/m 0 min 0 min 0,0 UV-I 0 W/m 0,0 km/h (0 Bft)
10.09.2014 06:38 13,0 C 12,2 C 93 % 1019,9 hPa 0,0 l/m 0 min 0 min 0,0 UV-I 0 W/m 0,0 km/h (0 Bft)
10.09.2014 06:40 12,9 C 12,2 C 93 % 1019,9 hPa 0,0 l/m 0 min 0 min 0,0 UV-I 0 W/m 0,0 km/h (0 Bft)
10.09.2014 06:42 12,9 C 12,2 C 93 % 1019,8 hPa 0,0 l/m 0 min 0 min 0,0 UV-I 0 W/m 0,0 km/h (0 Bft)
10.09.2014 06:44 12,9 C 12,2 C 93 % 1019,8 hPa 0,0 l/m 0 min 0 min 0,0 UV-I 0 W/m 0,0 km/h (0 Bft)
10.09.2014 06:46 12,9 C 12,2 C 93 % 1019,8 hPa 0,0 l/m 0 min 0 min 0,0 UV-I 0 W/m 0,0 km/h (0 Bft)
10.09.2014 06:48 12,9 C 12,2 C 93 % 1019,8 hPa 0,0 l/m 0 min 0 min 0,0 UV-I 0 W/m 0,0 km/h (0 Bft)
10.09.2014 06:50 12,9 C 12,2 C 93 % 1019,9 hPa 0,0 l/m 0 min 0 min 0,0 UV-I 0 W/m 0,0 km/h (0 Bft)
10.09.2014 06:52 12,9 C 12,2 C 93 % 1019,9 hPa 0,0 l/m 0 min 0 min 0,0 UV-I 0 W/m 0,0 km/h (0 Bft)
10.09.2014 06:54 12,9 C 12,2 C 93 % 1019,9 hPa 0,0 l/m 0 min 0 min 0,0 UV-I 0 W/m 0,0 km/h (0 Bft)
10.09.2014 06:56 12,9 C 12,2 C 93 % 1019,9 hPa 0,0 l/m 0 min 0 min 0,0 UV-I 0 W/m 4,2 km/h (1 Bft)
10.09.2014 06:58 12,9 C 12,2 C 93 % 1019,9 hPa 0,0 l/m 0 min 0 min 0,0 UV-I 0 W/m 0,0 km/h (0 Bft)
10.09.2014 07:00 12,9 C 12,2 C 94 % 1020,0 hPa 0,0 l/m 0 min 0 min 0,0 UV-I 0 W/m 0,0 km/h (0 Bft)
10.09.2014 07:02 12,9 C 12,2 C 94 % 1019,9 hPa 0,0 l/m 0 min 0 min 0,0 UV-I 0 W/m 0,0 km/h (0 Bft)
10.09.2014 07:04 12,9 C 12,2 C 94 % 1019,9 hPa 0,0 l/m 0 min 0 min 0,0 UV-I 0 W/m 0,0 km/h (0 Bft)
10.09.2014 07:06 12,9 C 12,2 C 94 % 1019,9 hPa 0,0 l/m 0 min 0 min 0,0 UV-I 0 W/m 0,0 km/h (0 Bft)
10.09.2014 07:08 12,9 C 12,2 C 94 % 1020,0 hPa 0,0 l/m 0 min 0 min 0,0 UV-I 0 W/m 0,0 km/h (0 Bft)
10.09.2014 07:10 12,9 C 12,2 C 94 % 1020,0 hPa 0,0 l/m 0 min 0 min 0,0 UV-I 0 W/m 0,0 km/h (0 Bft)
10.09.2014 07:12 12,9 C 12,2 C 94 % 1020,0 hPa 0,0 l/m 0 min 0 min 0,0 UV-I 0 W/m 0,0 km/h (0 Bft)
10.09.2014 07:14 12,9 C 12,2 C 94 % 1020,0 hPa 0,0 l/m 0 min 0 min 0,0 UV-I 0 W/m 0,0 km/h (0 Bft)
10.09.2014 07:16 12,9 C 12,2 C 94 % 1020,1 hPa 0,0 l/m 0 min 0 min 0,0 UV-I 0 W/m 0,0 km/h (0 Bft)
10.09.2014 07:18 12,9 C 12,2 C 94 % 1020,0 hPa 0,0 l/m 0 min 0 min 0,0 UV-I 0 W/m 0,0 km/h (0 Bft)
10.09.2014 07:20 12,9 C 12,2 C 94 % 1020,0 hPa 0,0 l/m 0 min 0 min 0,0 UV-I 0 W/m 0,0 km/h (0 Bft)
10.09.2014 07:22 12,9 C 12,2 C 94 % 1020,1 hPa 0,0 l/m 0 min 0 min 0,0 UV-I 0 W/m 0,0 km/h (0 Bft)
10.09.2014 07:24 12,9 C 12,2 C 94 % 1020,1 hPa 0,0 l/m 0 min 0 min 0,0 UV-I 0 W/m 0,0 km/h (0 Bft)
10.09.2014 07:26 12,9 C 12,2 C 94 % 1020,2 hPa 0,0 l/m 0 min 0 min 0,0 UV-I 0 W/m 0,0 km/h (0 Bft)
10.09.2014 07:28 12,9 C 12,2 C 94 % 1020,1 hPa 0,0 l/m 0 min 0 min 0,0 UV-I 0 W/m 0,0 km/h (0 Bft)
10.09.2014 07:30 12,9 C 12,2 C 94 % 1020,1 hPa 0,0 l/m 0 min 0 min 0,0 UV-I 0 W/m 0,0 km/h (0 Bft)
10.09.2014 07:32 12,9 C 12,2 C 94 % 1020,1 hPa 0,0 l/m 0 min 0 min 0,0 UV-I 0 W/m 0,0 km/h (0 Bft)
10.09.2014 07:34 12,9 C 12,2 C 94 % 1020,2 hPa 0,0 l/m 0 min 0 min 0,0 UV-I 0 W/m 0,0 km/h (0 Bft)
10.09.2014 07:36 12,9 C 12,2 C 94 % 1020,2 hPa 0,0 l/m 0 min 0 min 0,0 UV-I 0 W/m 0,0 km/h (0 Bft)
10.09.2014 07:38 12,9 C 12,2 C 94 % 1020,2 hPa 0,0 l/m 0 min 0 min 0,0 UV-I 0 W/m 0,0 km/h (0 Bft)
10.09.2014 07:40 12,9 C 12,2 C 94 % 1020,2 hPa 0,0 l/m 0 min 0 min 0,0 UV-I 0 W/m 0,0 km/h (0 Bft)
10.09.2014 07:42 12,9 C 12,2 C 94 % 1020,1 hPa 0,0 l/m 0 min 0 min 0,0 UV-I 0 W/m 0,0 km/h (0 Bft)
10.09.2014 07:44 12,9 C 12,2 C 94 % 1020,1 hPa 0,0 l/m 0 min 0 min 0,0 UV-I 0 W/m 0,0 km/h (0 Bft)
10.09.2014 07:46 12,9 C 12,2 C 94 % 1020,2 hPa 0,0 l/m 0 min 0 min 0,0 UV-I 0 W/m 0,0 km/h (0 Bft)
10.09.2014 07:48 12,9 C 12,2 C 94 % 1020,1 hPa 0,0 l/m 0 min 0 min 0,0 UV-I 0 W/m 0,0 km/h (0 Bft)
10.09.2014 07:50 12,9 C 12,2 C 94 % 1020,1 hPa 0,0 l/m 0 min 0 min 0,0 UV-I 0 W/m 0,0 km/h (0 Bft)
10.09.2014 07:52 12,9 C 12,2 C 94 % 1020,1 hPa 0,0 l/m 0 min 0 min 0,0 UV-I 0 W/m 0,0 km/h (0 Bft)
10.09.2014 07:54 12,9 C 12,2 C 94 % 1020,2 hPa 0,0 l/m 0 min 0 min 0,0 UV-I 0 W/m 0,0 km/h (0 Bft)
10.09.2014 07:56 12,9 C 12,2 C 94 % 1020,2 hPa 0,0 l/m 0 min 0 min 0,0 UV-I 0 W/m 0,0 km/h (0 Bft)
10.09.2014 07:58 12,9 C 12,2 C 94 % 1020,2 hPa 0,0 l/m 0 min 0 min 0,0 UV-I 0 W/m 0,0 km/h (0 Bft)
10.09.2014 08:00 12,9 C 12,2 C 94 % 1020,2 hPa 0,0 l/m 0 min 0 min 0,0 UV-I 0 W/m 0,0 km/h (0 Bft)
10.09.2014 08:02 12,9 C 12,2 C 94 % 1020,2 hPa 0,0 l/m 0 min 0 min 0,0 UV-I 0 W/m 0,0 km/h (0 Bft)
10.09.2014 08:04 12,9 C 12,2 C 94 % 1020,2 hPa 0,0 l/m 0 min 0 min 0,0 UV-I 0 W/m 0,0 km/h (0 Bft)
10.09.2014 08:06 12,9 C 12,2 C 94 % 1020,1 hPa 0,0 l/m 0 min 0 min 0,0 UV-I 0 W/m 0,0 km/h (0 Bft)
10.09.2014 08:08 12,9 C 12,2 C 94 % 1020,1 hPa 0,0 l/m 0 min 0 min 0,0 UV-I 0 W/m 0,0 km/h (0 Bft)
10.09.2014 08:10 13,0 C 12,2 C 94 % 1020,2 hPa 0,0 l/m 0 min 0 min 0,0 UV-I 0 W/m 0,0 km/h (0 Bft)
10.09.2014 08:12 13,0 C 12,2 C 94 % 1020,2 hPa 0,0 l/m 0 min 0 min 0,0 UV-I 0 W/m 0,0 km/h (0 Bft)
10.09.2014 08:14 13,0 C 12,8 C 94 % 1020,1 hPa 0,0 l/m 0 min 0 min 0,0 UV-I 0 W/m 0,0 km/h (0 Bft)
10.09.2014 08:16 13,0 C 12,8 C 94 % 1020,1 hPa 0,0 l/m 0 min 0 min 0,0 UV-I 0 W/m 0,0 km/h (0 Bft)
10.09.2014 08:18 13,0 C 12,8 C 94 % 1020,1 hPa 0,0 l/m 0 min 0 min 0,0 UV-I 0 W/m 0,0 km/h (0 Bft)
10.09.2014 08:20 13,0 C 12,8 C 94 % 1020,1 hPa 0,0 l/m 0 min 0 min 0,0 UV-I 0 W/m 0,0 km/h (0 Bft)
10.09.2014 08:22 13,1 C 12,8 C 94 % 1020,0 hPa 0,0 l/m 0 min 0 min 0,0 UV-I 0 W/m 0,0 km/h (0 Bft)
10.09.2014 08:24 13,1 C 12,8 C 94 % 1020,0 hPa 0,0 l/m 0 min 0 min 0,0 UV-I 0 W/m 0,0 km/h (0 Bft)
10.09.2014 08:26 13,1 C 12,8 C 94 % 1020,1 hPa 0,0 l/m 0 min 0 min 0,0 UV-I 0 W/m 0,0 km/h (0 Bft)
10.09.2014 08:28 13,1 C 12,8 C 94 % 1020,1 hPa 0,0 l/m 0 min 0 min 0,0 UV-I 0 W/m 0,0 km/h (0 Bft)
10.09.2014 08:30 13,1 C 12,8 C 94 % 1020,1 hPa 0,0 l/m 0 min 0 min 0,0 UV-I 0 W/m 0,0 km/h (0 Bft)
10.09.2014 08:32 13,1 C 12,8 C 94 % 1020,2 hPa 0,0 l/m 0 min 0 min 0,0 UV-I 0 W/m 0,0 km/h (0 Bft)
10.09.2014 08:34 13,1 C 12,8 C 94 % 1020,2 hPa 0,0 l/m 0 min 0 min 0,0 UV-I 0 W/m 0,0 km/h (0 Bft)
10.09.2014 08:36 13,1 C 12,8 C 94 % 1020,2 hPa 0,0 l/m 0 min 0 min 0,0 UV-I 0 W/m 0,0 km/h (0 Bft)
10.09.2014 08:38 13,1 C 12,8 C 94 % 1020,2 hPa 0,0 l/m 0 min 0 min 0,0 UV-I 0 W/m 0,0 km/h (0 Bft)
10.09.2014 08:40 13,2 C 12,8 C 94 % 1020,3 hPa 0,0 l/m 0 min 0 min 0,0 UV-I 0 W/m 2,1 km/h (1 Bft)
10.09.2014 08:42 13,2 C 12,8 C 94 % 1020,2 hPa 0,0 l/m 0 min 0 min 0,0 UV-I 0 W/m 0,0 km/h (0 Bft)
10.09.2014 08:44 13,2 C 12,8 C 94 % 1020,3 hPa 0,0 l/m 0 min 0 min 0,0 UV-I 0 W/m 0,0 km/h (0 Bft)
10.09.2014 08:46 13,2 C 12,8 C 94 % 1020,3 hPa 0,0 l/m 0 min 0 min 0,0 UV-I 0 W/m 0,0 km/h (0 Bft)
10.09.2014 08:48 13,2 C 12,8 C 94 % 1020,3 hPa 0,0 l/m 0 min 0 min 0,0 UV-I 0 W/m 10,5 km/h (2 Bft)
10.09.2014 08:50 13,2 C 12,8 C 94 % 1020,2 hPa 0,0 l/m 0 min 0 min 0,0 UV-I 0 W/m 10,5 km/h (2 Bft)
10.09.2014 08:52 13,2 C 12,8 C 94 % 1020,2 hPa 0,0 l/m 0 min 0 min 0,0 UV-I 0 W/m 6,3 km/h (2 Bft)
10.09.2014 08:54 13,2 C 13,3 C 94 % 1020,2 hPa 0,0 l/m 0 min 0 min 0,0 UV-I 0 W/m 0,0 km/h (0 Bft)
10.09.2014 08:56 13,3 C 13,3 C 94 % 1020,2 hPa 0,0 l/m 0 min 0 min 0,0 UV-I 0 W/m 0,0 km/h (0 Bft)
10.09.2014 08:58 13,3 C 13,3 C 94 % 1020,2 hPa 0,0 l/m 0 min 0 min 0,0 UV-I 0 W/m 2,1 km/h (1 Bft)
10.09.2014 09:00 13,3 C 13,3 C 94 % 1020,3 hPa 0,0 l/m 0 min 0 min 0,0 UV-I 0 W/m 0,0 km/h (0 Bft)
10.09.2014 09:02 13,3 C 13,3 C 94 % 1020,2 hPa 0,0 l/m 0 min 0 min 0,0 UV-I 0 W/m 0,0 km/h (0 Bft)
10.09.2014 09:04 13,3 C 13,3 C 93 % 1020,3 hPa 0,0 l/m 0 min 0 min 0,0 UV-I 0 W/m 8,4 km/h (2 Bft)
10.09.2014 09:06 13,4 C 13,3 C 93 % 1020,2 hPa 0,0 l/m 0 min 0 min 0,0 UV-I 0 W/m 6,3 km/h (2 Bft)
10.09.2014 09:08 13,4 C 13,3 C 93 % 1020,2 hPa 0,0 l/m 0 min 0 min 0,0 UV-I 0 W/m 10,5 km/h (2 Bft)
10.09.2014 09:10 13,4 C 13,3 C 93 % 1020,2 hPa 0,0 l/m 0 min 0 min 0,0 UV-I 0 W/m 10,5 km/h (2 Bft)
10.09.2014 09:12 13,4 C 13,3 C 93 % 1020,2 hPa 0,0 l/m 0 min 0 min 0,0 UV-I 0 W/m 6,3 km/h (2 Bft)
10.09.2014 09:14 13,5 C 13,3 C 93 % 1020,1 hPa 0,0 l/m 0 min 0 min 0,0 UV-I 0 W/m 6,3 km/h (2 Bft)
10.09.2014 09:16 13,5 C 13,3 C 93 % 1020,1 hPa 0,0 l/m 0 min 0 min 0,0 UV-I 0 W/m 0,0 km/h (0 Bft)
10.09.2014 09:18 13,6 C 13,3 C 93 % 1020,1 hPa 0,0 l/m 0 min 0 min 0,0 UV-I 0 W/m 2,1 km/h (1 Bft)
10.09.2014 09:20 13,6 C 13,3 C 92 % 1020,2 hPa 0,0 l/m 0 min 0 min 0,0 UV-I 0 W/m 0,0 km/h (0 Bft)
10.09.2014 09:22 13,6 C 13,3 C 92 % 1020,1 hPa 0,0 l/m 0 min 0 min 0,0 UV-I 0 W/m 6,3 km/h (2 Bft)
10.09.2014 09:24 13,7 C 13,3 C 92 % 1020,1 hPa 0,0 l/m 0 min 0 min 0,0 UV-I 0 W/m 10,5 km/h (2 Bft)
10.09.2014 09:26 13,7 C 13,3 C 92 % 1020,2 hPa 0,0 l/m 0 min 0 min 0,0 UV-I 0 W/m 8,4 km/h (2 Bft)
10.09.2014 09:28 13,7 C 13,9 C 92 % 1020,1 hPa 0,0 l/m 0 min 0 min 0,0 UV-I 0 W/m 4,2 km/h (1 Bft)
10.09.2014 09:30 13,7 C 13,9 C 92 % 1020,2 hPa 0,0 l/m 0 min 0 min 0,0 UV-I 0 W/m 12,6 km/h (3 Bft)
10.09.2014 09:32 13,8 C 13,9 C 91 % 1020,2 hPa 0,0 l/m 0 min 0 min 0,0 UV-I 0 W/m 10,5 km/h (2 Bft)
10.09.2014 09:34 13,8 C 13,9 C 91 % 1020,2 hPa 0,0 l/m 0 min 0 min 0,0 UV-I 0 W/m 10,5 km/h (2 Bft)
10.09.2014 09:36 13,9 C 13,9 C 91 % 1020,2 hPa 0,0 l/m 0 min 0 min 0,0 UV-I 0 W/m 8,4 km/h (2 Bft)
10.09.2014 09:38 13,9 C 13,9 C 91 % 1020,2 hPa 0,0 l/m 0 min 0 min 0,0 UV-I 0 W/m 12,6 km/h (3 Bft)
10.09.2014 09:40 13,9 C 13,9 C 91 % 1020,3 hPa 0,0 l/m 0 min 0 min 0,0 UV-I 0 W/m 12,6 km/h (3 Bft)
10.09.2014 09:42 14,0 C 13,9 C 90 % 1020,3 hPa 0,0 l/m 0 min 0 min 0,0 UV-I 0 W/m 12,6 km/h (3 Bft)
10.09.2014 09:44 14,1 C 13,9 C 90 % 1020,3 hPa 0,0 l/m 0 min 0 min 0,0 UV-I 0 W/m 16,7 km/h (3 Bft)
10.09.2014 09:46 14,1 C 13,9 C 90 % 1020,3 hPa 0,0 l/m 0 min 0 min 0,0 UV-I 0 W/m 8,4 km/h (2 Bft)
10.09.2014 09:48 14,2 C 13,9 C 90 % 1020,3 hPa 0,0 l/m 0 min 0 min 0,0 UV-I 0 W/m 12,6 km/h (3 Bft)
10.09.2014 09:50 14,2 C 13,9 C 90 % 1020,3 hPa 0,0 l/m 0 min 0 min 0,0 UV-I 0 W/m 12,6 km/h (3 Bft)
10.09.2014 09:52 14,2 C 13,9 C 89 % 1020,3 hPa 0,0 l/m 0 min 0 min 0,0 UV-I 0 W/m 12,6 km/h (3 Bft)
10.09.2014 09:54 14,2 C 13,9 C 89 % 1020,3 hPa 0,0 l/m 0 min 0 min 0,0 UV-I 0 W/m 10,5 km/h (2 Bft)
10.09.2014 09:56 14,2 C 14,4 C 89 % 1020,3 hPa 0,0 l/m 0 min 0 min 0,0 UV-I 0 W/m 10,5 km/h (2 Bft)
10.09.2014 09:58 14,3 C 14,4 C 89 % 1020,3 hPa 0,0 l/m 0 min 0 min 0,0 UV-I 0 W/m 0,0 km/h (0 Bft)
10.09.2014 10:00 14,3 C 14,4 C 89 % 1020,3 hPa 0,0 l/m 0 min 0 min 0,0 UV-I 0 W/m 10,5 km/h (2 Bft)
10.09.2014 10:02 14,4 C 14,4 C 88 % 1020,3 hPa 0,0 l/m 0 min 0 min 0,0 UV-I 0 W/m 12,6 km/h (3 Bft)
10.09.2014 10:04 14,4 C 14,4 C 88 % 1020,3 hPa 0,0 l/m 0 min 0 min 0,0 UV-I 0 W/m 10,5 km/h (2 Bft)
10.09.2014 10:06 14,4 C 14,4 C 88 % 1020,3 hPa 0,0 l/m 0 min 0 min 0,0 UV-I 0 W/m 12,6 km/h (3 Bft)
10.09.2014 10:08 14,5 C 14,4 C 88 % 1020,3 hPa 0,0 l/m 0 min 0 min 0,0 UV-I 0 W/m 12,6 km/h (3 Bft)
10.09.2014 10:10 14,6 C 15,0 C 88 % 1020,3 hPa 0,0 l/m 0 min 0 min 0,0 UV-I 0 W/m 16,7 km/h (3 Bft)
10.09.2014 10:12 14,6 C 15,0 C 87 % 1020,3 hPa 0,0 l/m 0 min 0 min 0,0 UV-I 0 W/m 12,6 km/h (3 Bft)
10.09.2014 10:14 14,7 C 15,0 C 87 % 1020,3 hPa 0,0 l/m 0 min 0 min 0,0 UV-I 0 W/m 14,6 km/h (3 Bft)
10.09.2014 10:16 14,7 C 15,0 C 87 % 1020,3 hPa 0,0 l/m 0 min 0 min 0,0 UV-I 0 W/m 14,6 km/h (3 Bft)
10.09.2014 10:18 14,8 C 15,0 C 86 % 1020,2 hPa 0,0 l/m 0 min 0 min 0,0 UV-I 0 W/m 0,0 km/h (0 Bft)
10.09.2014 10:20 14,8 C 15,0 C 86 % 1020,2 hPa 0,0 l/m 0 min 0 min 0,0 UV-I 0 W/m 0,0 km/h (0 Bft)
10.09.2014 10:22 14,8 C 15,0 C 85 % 1020,3 hPa 0,0 l/m 0 min 0 min 0,0 UV-I 0 W/m 0,0 km/h (0 Bft)
10.09.2014 10:24 14,9 C 15,0 C 85 % 1020,3 hPa 0,0 l/m 0 min 0 min 0,0 UV-I 0 W/m 0,0 km/h (0 Bft)
10.09.2014 10:26 14,9 C 15,0 C 85 % 1020,3 hPa 0,0 l/m 0 min 0 min 0,0 UV-I 0 W/m 0,0 km/h (0 Bft)
10.09.2014 10:28 14,9 C 15,0 C 85 % 1020,3 hPa 0,0 l/m 0 min 0 min 0,0 UV-I 0 W/m 0,0 km/h (0 Bft)
10.09.2014 10:30 15,0 C 15,0 C 85 % 1020,3 hPa 0,0 l/m 0 min 0 min 0,0 UV-I 0 W/m 0,0 km/h (0 Bft)
10.09.2014 10:32 15,1 C 15,0 C 85 % 1020,3 hPa 0,0 l/m 0 min 0 min 0,0 UV-I 0 W/m 0,0 km/h (0 Bft)
10.09.2014 10:34 15,1 C 15,0 C 85 % 1020,3 hPa 0,0 l/m 0 min 0 min 0,0 UV-I 0 W/m 0,0 km/h (0 Bft)
10.09.2014 10:36 15,1 C 15,0 C 84 % 1020,4 hPa 0,0 l/m 0 min 0 min 0,0 UV-I 0 W/m 0,0 km/h (0 Bft)
10.09.2014 10:38 15,2 C 15,0 C 84 % 1020,3 hPa 0,0 l/m 0 min 0 min 0,0 UV-I 0 W/m 0,0 km/h (0 Bft)
10.09.2014 10:40 15,2 C 15,0 C 84 % 1020,3 hPa 0,0 l/m 0 min 0 min 0,0 UV-I 0 W/m 0,0 km/h (0 Bft)
10.09.2014 10:42 15,2 C 15,0 C 84 % 1020,4 hPa 0,0 l/m 0 min 0 min 0,0 UV-I 0 W/m 0,0 km/h (0 Bft)
10.09.2014 10:44 15,2 C 15,0 C 84 % 1020,4 hPa 0,0 l/m 0 min 0 min 0,0 UV-I 0 W/m 0,0 km/h (0 Bft)
10.09.2014 10:46 15,3 C 15,6 C 83 % 1020,4 hPa 0,0 l/m 0 min 0 min 0,0 UV-I 0 W/m 0,0 km/h (0 Bft)
10.09.2014 10:48 15,3 C 15,6 C 83 % 1020,3 hPa 0,0 l/m 0 min 0 min 0,0 UV-I 0 W/m 0,0 km/h (0 Bft)
10.09.2014 10:50 15,3 C 15,6 C 83 % 1020,4 hPa 0,0 l/m 0 min 0 min 0,0 UV-I 0 W/m 0,0 km/h (0 Bft)
10.09.2014 10:52 15,4 C 15,6 C 82 % 1020,4 hPa 0,0 l/m 0 min 0 min 0,0 UV-I 0 W/m 0,0 km/h (0 Bft)
10.09.2014 10:54 15,4 C 15,6 C 82 % 1020,4 hPa 0,0 l/m 0 min 0 min 0,0 UV-I 0 W/m 8,4 km/h (2 Bft)
10.09.2014 10:56 15,5 C 16,1 C 82 % 1020,4 hPa 0,0 l/m 0 min 0 min 0,0 UV-I 0 W/m 10,5 km/h (2 Bft)
10.09.2014 10:58 15,6 C 16,1 C 82 % 1020,4 hPa 0,0 l/m 0 min 0 min 0,0 UV-I 0 W/m 10,5 km/h (2 Bft)
10.09.2014 11:00 15,6 C 16,1 C 81 % 1020,4 hPa 0,0 l/m 0 min 0 min 0,0 UV-I 0 W/m 10,5 km/h (2 Bft)
10.09.2014 11:02 15,6 C 16,1 C 80 % 1020,3 hPa 0,0 l/m 0 min 0 min 0,0 UV-I 0 W/m 10,5 km/h (2 Bft)
10.09.2014 11:04 15,7 C 16,1 C 80 % 1020,3 hPa 0,0 l/m 0 min 0 min 0,0 UV-I 0 W/m 8,4 km/h (2 Bft)
10.09.2014 11:06 15,7 C 16,1 C 80 % 1020,3 hPa 0,0 l/m 0 min 0 min 0,0 UV-I 0 W/m 8,4 km/h (2 Bft)
10.09.2014 11:08 15,8 C 16,7 C 80 % 1020,2 hPa 0,0 l/m 0 min 0 min 0,0 UV-I 0 W/m 6,3 km/h (2 Bft)
10.09.2014 11:10 15,9 C 16,7 C 80 % 1020,2 hPa 0,0 l/m 0 min 0 min 0,0 UV-I 0 W/m 12,6 km/h (3 Bft)
10.09.2014 11:12 15,9 C 16,7 C 79 % 1020,3 hPa 0,0 l/m 0 min 0 min 0,0 UV-I 0 W/m 12,6 km/h (3 Bft)
10.09.2014 11:14 16,0 C 16,7 C 78 % 1020,2 hPa 0,0 l/m 0 min 0 min 0,0 UV-I 0 W/m 8,4 km/h (2 Bft)
10.09.2014 11:16 16,1 C 16,7 C 76 % 1020,3 hPa 0,0 l/m 0 min 0 min 0,0 UV-I 0 W/m 12,6 km/h (3 Bft)
10.09.2014 11:18 16,2 C 16,7 C 74 % 1020,3 hPa 0,0 l/m 0 min 0 min 0,0 UV-I 0 W/m 12,6 km/h (3 Bft)
10.09.2014 11:20 16,2 C 16,7 C 73 % 1020,3 hPa 0,0 l/m 0 min 0 min 0,0 UV-I 0 W/m 12,6 km/h (3 Bft)
10.09.2014 11:22 16,3 C 16,7 C 73 % 1020,3 hPa 0,0 l/m 0 min 0 min 0,0 UV-I 0 W/m 14,6 km/h (3 Bft)
10.09.2014 11:24 16,4 C 16,7 C 73 % 1020,3 hPa 0,0 l/m 0 min 0 min 0,0 UV-I 0 W/m 10,5 km/h (2 Bft)
10.09.2014 11:26 16,4 C 16,7 C 72 % 1020,3 hPa 0,0 l/m 0 min 0 min 0,0 UV-I 0 W/m 12,6 km/h (3 Bft)
10.09.2014 11:28 16,5 C 16,7 C 71 % 1020,4 hPa 0,0 l/m 0 min 0 min 0,0 UV-I 0 W/m 14,6 km/h (3 Bft)
10.09.2014 11:30 16,6 C 17,2 C 71 % 1020,4 hPa 0,0 l/m 0 min 0 min 0,0 UV-I 0 W/m 14,6 km/h (3 Bft)
10.09.2014 11:32 16,6 C 16,7 C 71 % 1020,4 hPa 0,0 l/m 0 min 0 min 0,0 UV-I 0 W/m 12,6 km/h (3 Bft)
10.09.2014 11:34 16,6 C 16,7 C 72 % 1020,4 hPa 0,0 l/m 0 min 0 min 0,0 UV-I 0 W/m 8,4 km/h (2 Bft)
10.09.2014 11:36 16,7 C 16,7 C 72 % 1020,4 hPa 0,0 l/m 0 min 0 min 0,0 UV-I 0 W/m 16,7 km/h (3 Bft)
10.09.2014 11:38 16,7 C 16,1 C 73 % 1020,5 hPa 0,0 l/m 0 min 0 min 0,0 UV-I 0 W/m 14,6 km/h (3 Bft)
10.09.2014 11:40 16,7 C 16,1 C 73 % 1020,4 hPa 0,0 l/m 0 min 0 min 0,0 UV-I 0 W/m 20,9 km/h (4 Bft)
10.09.2014 11:42 16,6 C 16,1 C 73 % 1020,5 hPa 0,0 l/m 0 min 0 min 0,0 UV-I 0 W/m 18,8 km/h (3 Bft)
10.09.2014 11:44 16,6 C 15,6 C 73 % 1020,5 hPa 0,0 l/m 0 min 0 min 0,0 UV-I 0 W/m 14,6 km/h (3 Bft)
10.09.2014 11:46 16,6 C 16,1 C 73 % 1020,5 hPa 0,0 l/m 0 min 0 min 0,0 UV-I 0 W/m 10,5 km/h (2 Bft)
10.09.2014 11:48 16,6 C 16,1 C 74 % 1020,5 hPa 0,0 l/m 0 min 0 min 0,0 UV-I 0 W/m 12,6 km/h (3 Bft)
10.09.2014 11:50 16,5 C 16,1 C 73 % 1020,5 hPa 0,0 l/m 0 min 0 min 0,0 UV-I 0 W/m 14,6 km/h (3 Bft)
10.09.2014 11:52 16,5 C 16,1 C 72 % 1020,4 hPa 0,0 l/m 0 min 0 min 0,0 UV-I 0 W/m 12,6 km/h (3 Bft)
10.09.2014 11:54 16,4 C 16,1 C 72 % 1020,3 hPa 0,0 l/m 0 min 0 min 0,0 UV-I 0 W/m 16,7 km/h (3 Bft)
10.09.2014 11:56 16,4 C 16,1 C 72 % 1020,3 hPa 0,0 l/m 0 min 0 min 0,0 UV-I 0 W/m 16,7 km/h (3 Bft)
10.09.2014 11:58 16,4 C 16,7 C 72 % 1020,3 hPa 0,0 l/m 0 min 0 min 0,0 UV-I 0 W/m 6,3 km/h (2 Bft)
10.09.2014 12:00 16,4 C 16,7 C 72 % 1020,2 hPa 0,0 l/m 0 min 0 min 0,0 UV-I 0 W/m 10,5 km/h (2 Bft)
10.09.2014 12:02 16,5 C 16,7 C 71 % 1020,2 hPa 0,0 l/m 0 min 0 min 0,0 UV-I 0 W/m 12,6 km/h (3 Bft)
10.09.2014 12:06 16,6 C 16,7 C 72 % 1020,1 hPa 0,0 l/m 0 min 0 min 0,0 UV-I 0 W/m 12,6 km/h (3 Bft)
10.09.2014 12:08 16,7 C 16,7 C 71 % 1020,2 hPa 0,0 l/m 0 min 0 min 0,0 UV-I 0 W/m 10,5 km/h (2 Bft)
10.09.2014 12:10 16,7 C 17,2 C 72 % 1020,1 hPa 0,0 l/m 0 min 0 min 0,0 UV-I 0 W/m 10,5 km/h (2 Bft)
10.09.2014 12:12 16,8 C 17,2 C 71 % 1020,1 hPa 0,0 l/m 0 min 0 min 0,0 UV-I 0 W/m 10,5 km/h (2 Bft)
10.09.2014 12:14 16,9 C 17,2 C 72 % 1020,1 hPa 0,0 l/m 0 min 0 min 0,0 UV-I 0 W/m 12,6 km/h (3 Bft)
10.09.2014 12:16 17,1 C 17,8 C 71 % 1020,1 hPa 0,0 l/m 0 min 0 min 0,0 UV-I 0 W/m 14,6 km/h (3 Bft)
10.09.2014 12:18 17,2 C 17,8 C 70 % 1020,0 hPa 0,0 l/m 0 min 0 min 0,0 UV-I 0 W/m 10,5 km/h (2 Bft)
10.09.2014 12:20 17,3 C 18,3 C 70 % 1020,1 hPa 0,0 l/m 0 min 0 min 0,0 UV-I 0 W/m 0,0 km/h (0 Bft)
10.09.2014 12:22 17,4 C 18,3 C 69 % 1020,0 hPa 0,0 l/m 0 min 0 min 0,0 UV-I 0 W/m 10,5 km/h (2 Bft)
10.09.2014 12:24 17,4 C 17,8 C 68 % 1020,1 hPa 0,0 l/m 0 min 0 min 0,0 UV-I 0 W/m 16,7 km/h (3 Bft)
10.09.2014 12:26 17,5 C 17,2 C 67 % 1020,1 hPa 0,0 l/m 0 min 0 min 0,0 UV-I 0 W/m 14,6 km/h (3 Bft)
10.09.2014 12:28 17,6 C 17,2 C 67 % 1020,0 hPa 0,0 l/m 0 min 0 min 0,0 UV-I 0 W/m 16,7 km/h (3 Bft)
10.09.2014 12:30 17,6 C 17,2 C 67 % 1020,0 hPa 0,0 l/m 0 min 0 min 0,0 UV-I 0 W/m 14,6 km/h (3 Bft)
10.09.2014 12:32 17,6 C 17,2 C 67 % 1020,0 hPa 0,0 l/m 0 min 0 min 0,0 UV-I 0 W/m 16,7 km/h (3 Bft)
10.09.2014 12:34 17,6 C 17,2 C 66 % 1020,0 hPa 0,0 l/m 0 min 0 min 0,0 UV-I 0 W/m 14,6 km/h (3 Bft)
10.09.2014 12:36 17,6 C 17,2 C 66 % 1020,0 hPa 0,0 l/m 0 min 0 min 0,0 UV-I 0 W/m 20,9 km/h (4 Bft)
10.09.2014 12:38 17,6 C 17,2 C 66 % 1020,0 hPa 0,0 l/m 0 min 0 min 0,0 UV-I 0 W/m 20,9 km/h (4 Bft)
10.09.2014 12:40 17,6 C 17,8 C 67 % 1020,0 hPa 0,0 l/m 0 min 0 min 0,0 UV-I 0 W/m 18,8 km/h (3 Bft)
10.09.2014 12:42 17,6 C 17,2 C 66 % 1020,0 hPa 0,0 l/m 0 min 0 min 0,0 UV-I 0 W/m 14,6 km/h (3 Bft)
10.09.2014 12:44 17,6 C 17,2 C 64 % 1019,9 hPa 0,0 l/m 0 min 0 min 0,0 UV-I 0 W/m 14,6 km/h (3 Bft)
10.09.2014 12:46 17,5 C 16,7 C 65 % 1019,9 hPa 0,0 l/m 0 min 0 min 0,0 UV-I 0 W/m 16,7 km/h (3 Bft)
10.09.2014 12:48 17,5 C 16,7 C 66 % 1019,9 hPa 0,0 l/m 0 min 0 min 0,0 UV-I 0 W/m 16,7 km/h (3 Bft)
10.09.2014 12:50 17,4 C 16,7 C 66 % 1019,9 hPa 0,0 l/m 0 min 0 min 0,0 UV-I 0 W/m 16,7 km/h (3 Bft)
10.09.2014 12:52 17,4 C 16,1 C 67 % 1019,9 hPa 0,0 l/m 0 min 0 min 0,0 UV-I 0 W/m 14,6 km/h (3 Bft)
10.09.2014 12:54 17,4 C 16,1 C 67 % 1019,9 hPa 0,0 l/m 0 min 0 min 0,0 UV-I 0 W/m 12,6 km/h (3 Bft)
10.09.2014 12:56 17,3 C 16,7 C 68 % 1020,0 hPa 0,0 l/m 0 min 0 min 0,0 UV-I 0 W/m 12,6 km/h (3 Bft)
10.09.2014 12:58 17,3 C 16,7 C 68 % 1020,0 hPa 0,0 l/m 0 min 0 min 0,0 UV-I 0 W/m 18,8 km/h (3 Bft)
10.09.2014 13:00 17,3 C 16,7 C 68 % 1019,9 hPa 0,0 l/m 0 min 0 min 0,0 UV-I 0 W/m 12,6 km/h (3 Bft)
10.09.2014 13:02 17,2 C 16,7 C 68 % 1019,9 hPa 0,0 l/m 0 min 0 min 0,0 UV-I 0 W/m 14,6 km/h (3 Bft)
10.09.2014 13:04 17,2 C 17,2 C 69 % 1019,8 hPa 0,0 l/m 0 min 0 min 0,0 UV-I 0 W/m 12,6 km/h (3 Bft)
10.09.2014 13:06 17,2 C 17,2 C 69 % 1019,8 hPa 0,0 l/m 0 min 0 min 0,0 UV-I 0 W/m 14,6 km/h (3 Bft)
10.09.2014 13:08 17,2 C 17,8 C 69 % 1019,8 hPa 0,0 l/m 0 min 0 min 0,0 UV-I 0 W/m 12,6 km/h (3 Bft)
10.09.2014 13:10 17,3 C 17,8 C 69 % 1019,8 hPa 0,0 l/m 0 min 0 min 0,0 UV-I 0 W/m 10,5 km/h (2 Bft)
10.09.2014 13:12 17,4 C 18,3 C 70 % 1019,7 hPa 0,0 l/m 0 min 0 min 0,0 UV-I 0 W/m 14,6 km/h (3 Bft)
10.09.2014 13:14 17,5 C 18,3 C 71 % 1019,8 hPa 0,0 l/m 0 min 0 min 0,0 UV-I 0 W/m 18,8 km/h (3 Bft)
10.09.2014 13:16 17,6 C 17,8 C 70 % 1019,8 hPa 0,0 l/m 0 min 0 min 0,0 UV-I 0 W/m 18,8 km/h (3 Bft)
10.09.2014 13:18 17,6 C 17,2 C 69 % 1019,8 hPa 0,0 l/m 0 min 0 min 0,0 UV-I 0 W/m 12,6 km/h (3 Bft)
10.09.2014 13:20 17,6 C 17,2 C 69 % 1019,8 hPa 0,0 l/m 0 min 0 min 0,0 UV-I 0 W/m 16,7 km/h (3 Bft)
10.09.2014 13:22 17,6 C 16,7 C 68 % 1019,8 hPa 0,0 l/m 0 min 0 min 0,0 UV-I 0 W/m 23,0 km/h (4 Bft)
10.09.2014 13:24 17,5 C 16,7 C 67 % 1019,8 hPa 0,0 l/m 0 min 0 min 0,0 UV-I 0 W/m 18,8 km/h (3 Bft)
10.09.2014 13:26 17,4 C 16,7 C 67 % 1019,8 hPa 0,0 l/m 0 min 0 min 0,0 UV-I 0 W/m 20,9 km/h (4 Bft)
10.09.2014 13:28 17,4 C 16,7 C 67 % 1019,7 hPa 0,0 l/m 0 min 0 min 0,0 UV-I 0 W/m 18,8 km/h (3 Bft)
10.09.2014 13:30 17,3 C 16,7 C 67 % 1019,7 hPa 0,0 l/m 0 min 0 min 0,0 UV-I 0 W/m 16,7 km/h (3 Bft)
10.09.2014 13:32 17,2 C 16,7 C 67 % 1019,8 hPa 0,0 l/m 0 min 0 min 0,0 UV-I 0 W/m 12,6 km/h (3 Bft)
10.09.2014 13:34 17,2 C 16,7 C 69 % 1019,8 hPa 0,0 l/m 0 min 0 min 0,0 UV-I 0 W/m 10,5 km/h (2 Bft)
10.09.2014 13:36 17,2 C 16,7 C 68 % 1019,8 hPa 0,0 l/m 0 min 0 min 0,0 UV-I 0 W/m 10,5 km/h (2 Bft)
10.09.2014 13:38 17,2 C 17,2 C 68 % 1019,8 hPa 0,0 l/m 0 min 0 min 0,0 UV-I 0 W/m 16,7 km/h (3 Bft)
10.09.2014 13:40 17,2 C 17,2 C 68 % 1019,8 hPa 0,0 l/m 0 min 0 min 0,0 UV-I 0 W/m 18,8 km/h (3 Bft)
10.09.2014 13:42 17,3 C 17,8 C 69 % 1019,8 hPa 0,0 l/m 0 min 0 min 0,0 UV-I 0 W/m 23,0 km/h (4 Bft)
10.09.2014 13:44 17,4 C 18,3 C 69 % 1019,9 hPa 0,0 l/m 0 min 0 min 0,0 UV-I 0 W/m 20,9 km/h (4 Bft)
10.09.2014 13:46 17,5 C 18,3 C 69 % 1019,9 hPa 0,0 l/m 0 min 0 min 0,0 UV-I 0 W/m 20,9 km/h (4 Bft)
10.09.2014 13:48 17,6 C 18,3 C 69 % 1020,0 hPa 0,0 l/m 0 min 0 min 0,0 UV-I 0 W/m 20,9 km/h (4 Bft)
10.09.2014 13:50 17,7 C 17,8 C 68 % 1020,0 hPa 0,0 l/m 0 min 0 min 0,0 UV-I 0 W/m 16,7 km/h (3 Bft)
10.09.2014 13:52 17,7 C 17,8 C 68 % 1020,0 hPa 0,0 l/m 0 min 0 min 0,0 UV-I 0 W/m 20,9 km/h (4 Bft)
10.09.2014 13:54 17,8 C 17,8 C 68 % 1020,0 hPa 0,0 l/m 0 min 0 min 0,0 UV-I 0 W/m 25,1 km/h (4 Bft)
10.09.2014 13:56 17,8 C 17,2 C 66 % 1020,0 hPa 0,0 l/m 0 min 0 min 0,0 UV-I 0 W/m 23,0 km/h (4 Bft)
10.09.2014 13:58 17,8 C 17,2 C 66 % 1019,9 hPa 0,0 l/m 0 min 0 min 0,0 UV-I 0 W/m 16,7 km/h (3 Bft)
10.09.2014 14:00 17,8 C 17,8 C 66 % 1020,0 hPa 0,0 l/m 0 min 0 min 0,0 UV-I 0 W/m 14,6 km/h (3 Bft)
10.09.2014 14:02 17,8 C 17,8 C 67 % 1020,0 hPa 0,0 l/m 0 min 0 min 0,0 UV-I 0 W/m 12,6 km/h (3 Bft)
10.09.2014 14:04 17,8 C 17,8 C 67 % 1019,9 hPa 0,0 l/m 0 min 0 min 0,0 UV-I 0 W/m 12,6 km/h (3 Bft)
10.09.2014 14:06 17,9 C 17,2 C 67 % 1019,9 hPa 0,0 l/m 0 min 0 min 0,0 UV-I 0 W/m 14,6 km/h (3 Bft)
10.09.2014 14:08 17,9 C 17,2 C 66 % 1019,9 hPa 0,0 l/m 0 min 0 min 0,0 UV-I 0 W/m 14,6 km/h (3 Bft)
10.09.2014 14:10 17,9 C 17,2 C 66 % 1019,9 hPa 0,0 l/m 0 min 0 min 0,0 UV-I 0 W/m 14,6 km/h (3 Bft)
10.09.2014 14:12 17,9 C 16,7 C 66 % 1019,9 hPa 0,0 l/m 0 min 0 min 0,0 UV-I 0 W/m 14,6 km/h (3 Bft)
10.09.2014 14:14 17,8 C 16,7 C 65 % 1019,8 hPa 0,0 l/m 0 min 0 min 0,0 UV-I 0 W/m 12,6 km/h (3 Bft)
10.09.2014 14:16 17,8 C 16,7 C 65 % 1019,8 hPa 0,0 l/m 0 min 0 min 0,0 UV-I 0 W/m 12,6 km/h (3 Bft)
10.09.2014 14:18 17,8 C 16,7 C 67 % 1019,8 hPa 0,0 l/m 0 min 0 min 0,0 UV-I 0 W/m 12,6 km/h (3 Bft)
10.09.2014 14:20 17,7 C 16,7 C 67 % 1019,8 hPa 0,0 l/m 0 min 0 min 0,0 UV-I 0 W/m 16,7 km/h (3 Bft)
10.09.2014 14:22 17,7 C 16,7 C 67 % 1019,7 hPa 0,0 l/m 0 min 0 min 0,0 UV-I 0 W/m 16,7 km/h (3 Bft)
10.09.2014 14:24 17,7 C 16,7 C 67 % 1019,7 hPa 0,0 l/m 0 min 0 min 0,0 UV-I 0 W/m 14,6 km/h (3 Bft)
10.09.2014 14:26 17,6 C 16,7 C 67 % 1019,7 hPa 0,0 l/m 0 min 0 min 0,0 UV-I 0 W/m 14,6 km/h (3 Bft)
10.09.2014 14:28 17,6 C 16,7 C 67 % 1019,7 hPa 0,0 l/m 0 min 0 min 0,0 UV-I 0 W/m 12,6 km/h (3 Bft)
10.09.2014 14:30 17,6 C 16,7 C 68 % 1019,7 hPa 0,0 l/m 0 min 0 min 0,0 UV-I 0 W/m 16,7 km/h (3 Bft)
10.09.2014 14:32 17,6 C 17,2 C 68 % 1019,7 hPa 0,0 l/m 0 min 0 min 0,0 UV-I 0 W/m 16,7 km/h (3 Bft)
10.09.2014 14:34 17,6 C 17,2 C 68 % 1019,7 hPa 0,0 l/m 0 min 0 min 0,0 UV-I 0 W/m 16,7 km/h (3 Bft)
10.09.2014 14:36 17,6 C 17,2 C 68 % 1019,7 hPa 0,0 l/m 0 min 0 min 0,0 UV-I 0 W/m 16,7 km/h (3 Bft)
10.09.2014 14:38 17,6 C 17,2 C 68 % 1019,6 hPa 0,0 l/m 0 min 0 min 0,0 UV-I 0 W/m 16,7 km/h (3 Bft)
10.09.2014 14:40 17,6 C 17,8 C 68 % 1019,6 hPa 0,0 l/m 0 min 0 min 0,0 UV-I 0 W/m 23,0 km/h (4 Bft)
10.09.2014 14:42 17,6 C 17,8 C 68 % 1019,6 hPa 0,0 l/m 0 min 0 min 0,0 UV-I 0 W/m 12,6 km/h (3 Bft)
10.09.2014 14:44 17,6 C 17,8 C 67 % 1019,7 hPa 0,0 l/m 0 min 0 min 0,0 UV-I 0 W/m 14,6 km/h (3 Bft)
10.09.2014 14:46 17,7 C 17,8 C 67 % 1019,7 hPa 0,0 l/m 0 min 0 min 0,0 UV-I 0 W/m 16,7 km/h (3 Bft)
10.09.2014 14:48 17,7 C 17,8 C 67 % 1019,7 hPa 0,0 l/m 0 min 0 min 0,0 UV-I 0 W/m 8,4 km/h (2 Bft)
10.09.2014 14:50 17,8 C 17,8 C 67 % 1019,7 hPa 0,0 l/m 0 min 0 min 0,0 UV-I 0 W/m 14,6 km/h (3 Bft)
10.09.2014 14:52 17,8 C 17,8 C 67 % 1019,6 hPa 0,0 l/m 0 min 0 min 0,0 UV-I 0 W/m 14,6 km/h (3 Bft)
10.09.2014 14:54 17,8 C 17,8 C 66 % 1019,7 hPa 0,0 l/m 0 min 0 min 0,0 UV-I 0 W/m 14,6 km/h (3 Bft)
10.09.2014 14:56 17,9 C 17,8 C 66 % 1019,6 hPa 0,0 l/m 0 min 0 min 0,0 UV-I 0 W/m 10,5 km/h (2 Bft)
10.09.2014 14:58 17,9 C 17,8 C 66 % 1019,7 hPa 0,0 l/m 0 min 0 min 0,0 UV-I 0 W/m 14,6 km/h (3 Bft)
10.09.2014 15:00 17,9 C 17,2 C 67 % 1019,7 hPa 0,0 l/m 0 min 0 min 0,0 UV-I 0 W/m 16,7 km/h (3 Bft)
10.09.2014 15:02 17,9 C 17,8 C 67 % 1019,7 hPa 0,0 l/m 0 min 0 min 0,0 UV-I 0 W/m 18,8 km/h (3 Bft)
10.09.2014 15:04 17,9 C 17,8 C 67 % 1019,7 hPa 0,0 l/m 0 min 0 min 0,0 UV-I 0 W/m 18,8 km/h (3 Bft)
10.09.2014 15:06 17,9 C 17,8 C 67 % 1019,7 hPa 0,0 l/m 0 min 0 min 0,0 UV-I 0 W/m 20,9 km/h (4 Bft)
10.09.2014 15:08 17,9 C 17,8 C 67 % 1019,7 hPa 0,0 l/m 0 min 0 min 0,0 UV-I 0 W/m 18,8 km/h (3 Bft)
10.09.2014 15:10 18,0 C 17,8 C 67 % 1019,7 hPa 0,0 l/m 0 min 0 min 0,0 UV-I 0 W/m 18,8 km/h (3 Bft)
10.09.2014 15:12 17,9 C 17,8 C 67 % 1019,7 hPa 0,0 l/m 0 min 0 min 0,0 UV-I 0 W/m 18,8 km/h (3 Bft)
10.09.2014 15:14 18,0 C 17,8 C 66 % 1019,7 hPa 0,0 l/m 0 min 0 min 0,0 UV-I 0 W/m 12,6 km/h (3 Bft)
10.09.2014 15:16 18,0 C 17,8 C 66 % 1019,7 hPa 0,0 l/m 0 min 0 min 0,0 UV-I 0 W/m 14,6 km/h (3 Bft)
10.09.2014 15:18 18,0 C 17,8 C 67 % 1019,7 hPa 0,0 l/m 0 min 0 min 0,0 UV-I 0 W/m 12,6 km/h (3 Bft)
10.09.2014 15:20 18,0 C 17,8 C 67 % 1019,7 hPa 0,0 l/m 0 min 0 min 0,0 UV-I 0 W/m 12,6 km/h (3 Bft)
10.09.2014 15:22 18,1 C 17,8 C 68 % 1019,6 hPa 0,0 l/m 0 min 0 min 0,0 UV-I 0 W/m 10,5 km/h (2 Bft)
10.09.2014 15:24 18,1 C 18,3 C 68 % 1019,6 hPa 0,0 l/m 0 min 0 min 0,0 UV-I 0 W/m 12,6 km/h (3 Bft)
10.09.2014 15:26 18,1 C 17,8 C 68 % 1019,6 hPa 0,0 l/m 0 min 0 min 0,0 UV-I 0 W/m 12,6 km/h (3 Bft)
10.09.2014 15:28 18,1 C 17,8 C 67 % 1019,6 hPa 0,0 l/m 0 min 0 min 0,0 UV-I 0 W/m 12,6 km/h (3 Bft)
10.09.2014 15:30 18,1 C 17,8 C 67 % 1019,6 hPa 0,0 l/m 0 min 0 min 0,0 UV-I 0 W/m 16,7 km/h (3 Bft)
10.09.2014 15:32 18,1 C 17,2 C 67 % 1019,6 hPa 0,0 l/m 0 min 0 min 0,0 UV-I 0 W/m 16,7 km/h (3 Bft)
10.09.2014 15:34 18,1 C 17,2 C 67 % 1019,6 hPa 0,0 l/m 0 min 0 min 0,0 UV-I 0 W/m 12,6 km/h (3 Bft)
10.09.2014 15:36 18,1 C 17,2 C 66 % 1019,6 hPa 0,0 l/m 0 min 0 min 0,0 UV-I 0 W/m 18,8 km/h (3 Bft)
10.09.2014 15:38 18,1 C 16,7 C 66 % 1019,5 hPa 0,0 l/m 0 min 0 min 0,0 UV-I 0 W/m 16,7 km/h (3 Bft)
10.09.2014 15:40 18,0 C 16,7 C 67 % 1019,5 hPa 0,0 l/m 0 min 0 min 0,0 UV-I 0 W/m 16,7 km/h (3 Bft)
10.09.2014 15:42 18,0 C 16,7 C 69 % 1019,5 hPa 0,0 l/m 0 min 0 min 0,0 UV-I 0 W/m 20,9 km/h (4 Bft)
10.09.2014 15:44 17,9 C 16,1 C 69 % 1019,5 hPa 0,0 l/m 0 min 0 min 0,0 UV-I 0 W/m 16,7 km/h (3 Bft)
10.09.2014 15:46 17,9 C 16,7 C 70 % 1019,5 hPa 0,0 l/m 0 min 0 min 0,0 UV-I 0 W/m 12,6 km/h (3 Bft)
10.09.2014 15:48 17,8 C 16,1 C 70 % 1019,4 hPa 0,0 l/m 0 min 0 min 0,0 UV-I 0 W/m 16,7 km/h (3 Bft)
10.09.2014 15:50 17,8 C 16,7 C 70 % 1019,5 hPa 0,0 l/m 0 min 0 min 0,0 UV-I 0 W/m 6,3 km/h (2 Bft)
10.09.2014 15:52 17,7 C 16,1 C 70 % 1019,4 hPa 0,0 l/m 0 min 0 min 0,0 UV-I 0 W/m 14,6 km/h (3 Bft)
10.09.2014 15:54 17,7 C 16,7 C 70 % 1019,4 hPa 0,0 l/m 0 min 0 min 0,0 UV-I 0 W/m 12,6 km/h (3 Bft)
10.09.2014 15:56 17,6 C 16,7 C 71 % 1019,4 hPa 0,0 l/m 0 min 0 min 0,0 UV-I 0 W/m 12,6 km/h (3 Bft)
10.09.2014 15:58 17,6 C 16,7 C 71 % 1019,4 hPa 0,0 l/m 0 min 0 min 0,0 UV-I 0 W/m 14,6 km/h (3 Bft)
10.09.2014 16:00 17,5 C 16,7 C 71 % 1019,4 hPa 0,0 l/m 0 min 0 min 0,0 UV-I 0 W/m 12,6 km/h (3 Bft)
10.09.2014 16:02 17,4 C 16,7 C 71 % 1019,4 hPa 0,0 l/m 0 min 0 min 0,0 UV-I 0 W/m 10,5 km/h (2 Bft)
10.09.2014 16:04 17,4 C 16,7 C 71 % 1019,4 hPa 0,0 l/m 0 min 0 min 0,0 UV-I 0 W/m 14,6 km/h (3 Bft)
10.09.2014 16:06 17,4 C 16,7 C 71 % 1019,5 hPa 0,0 l/m 0 min 0 min 0,0 UV-I 0 W/m 14,6 km/h (3 Bft)
10.09.2014 16:08 17,4 C 16,7 C 71 % 1019,5 hPa 0,0 l/m 0 min 0 min 0,0 UV-I 0 W/m 14,6 km/h (3 Bft)
10.09.2014 16:10 17,4 C 16,7 C 71 % 1019,5 hPa 0,0 l/m 0 min 0 min 0,0 UV-I 0 W/m 12,6 km/h (3 Bft)
10.09.2014 16:12 17,4 C 16,7 C 71 % 1019,4 hPa 0,0 l/m 0 min 0 min 0,0 UV-I 0 W/m 10,5 km/h (2 Bft)
10.09.2014 16:14 17,3 C 16,7 C 71 % 1019,5 hPa 0,0 l/m 0 min 0 min 0,0 UV-I 0 W/m 16,7 km/h (3 Bft)
10.09.2014 16:16 17,3 C 16,7 C 71 % 1019,3 hPa 0,0 l/m 0 min 0 min 0,0 UV-I 0 W/m 10,5 km/h (2 Bft)
10.09.2014 16:18 17,3 C 16,7 C 72 % 1019,4 hPa 0,0 l/m 0 min 0 min 0,0 UV-I 0 W/m 10,5 km/h (2 Bft)
10.09.2014 16:20 17,3 C 16,7 C 72 % 1019,3 hPa 0,0 l/m 0 min 0 min 0,0 UV-I 0 W/m 6,3 km/h (2 Bft)
10.09.2014 16:22 17,4 C 16,7 C 72 % 1019,3 hPa 0,0 l/m 0 min 0 min 0,0 UV-I 0 W/m 10,5 km/h (2 Bft)
10.09.2014 16:24 17,4 C 16,7 C 72 % 1019,3 hPa 0,0 l/m 0 min 0 min 0,0 UV-I 0 W/m 12,6 km/h (3 Bft)
10.09.2014 16:26 17,4 C 16,7 C 71 % 1019,2 hPa 0,0 l/m 0 min 0 min 0,0 UV-I 0 W/m 8,4 km/h (2 Bft)
10.09.2014 16:28 17,4 C 16,7 C 71 % 1019,3 hPa 0,0 l/m 0 min 0 min 0,0 UV-I 0 W/m 10,5 km/h (2 Bft)
10.09.2014 16:30 17,4 C 17,2 C 71 % 1019,2 hPa 0,0 l/m 0 min 0 min 0,0 UV-I 0 W/m 12,6 km/h (3 Bft)
10.09.2014 16:32 17,4 C 17,2 C 71 % 1019,3 hPa 0,0 l/m 0 min 0 min 0,0 UV-I 0 W/m 6,3 km/h (2 Bft)
10.09.2014 16:34 17,4 C 17,2 C 71 % 1019,3 hPa 0,0 l/m 0 min 0 min 0,0 UV-I 0 W/m 8,4 km/h (2 Bft)
10.09.2014 16:36 17,5 C 17,2 C 71 % 1019,3 hPa 0,0 l/m 0 min 0 min 0,0 UV-I 0 W/m 10,5 km/h (2 Bft)
10.09.2014 16:38 17,5 C 17,2 C 72 % 1019,2 hPa 0,0 l/m 0 min 0 min 0,0 UV-I 0 W/m 10,5 km/h (2 Bft)
10.09.2014 16:40 17,6 C 17,2 C 71 % 1019,2 hPa 0,0 l/m 0 min 0 min 0,0 UV-I 0 W/m 16,7 km/h (3 Bft)
10.09.2014 16:42 17,6 C 17,2 C 71 % 1019,3 hPa 0,0 l/m 0 min 0 min 0,0 UV-I 0 W/m 14,6 km/h (3 Bft)
10.09.2014 16:44 17,6 C 17,2 C 71 % 1019,2 hPa 0,0 l/m 0 min 0 min 0,0 UV-I 0 W/m 12,6 km/h (3 Bft)
10.09.2014 16:46 17,6 C 17,2 C 71 % 1019,2 hPa 0,0 l/m 0 min 0 min 0,0 UV-I 0 W/m 14,6 km/h (3 Bft)
10.09.2014 16:48 17,6 C 16,7 C 71 % 1019,2 hPa 0,0 l/m 0 min 0 min 0,0 UV-I 0 W/m 14,6 km/h (3 Bft)
10.09.2014 16:50 17,6 C 16,7 C 70 % 1019,2 hPa 0,0 l/m 0 min 0 min 0,0 UV-I 0 W/m 14,6 km/h (3 Bft)
10.09.2014 16:52 17,6 C 16,7 C 70 % 1019,2 hPa 0,0 l/m 0 min 0 min 0,0 UV-I 0 W/m 12,6 km/h (3 Bft)
10.09.2014 16:54 17,6 C 16,7 C 71 % 1019,2 hPa 0,0 l/m 0 min 0 min 0,0 UV-I 0 W/m 14,6 km/h (3 Bft)
10.09.2014 16:56 17,6 C 16,7 C 71 % 1019,0 hPa 0,0 l/m 0 min 0 min 0,0 UV-I 0 W/m 8,4 km/h (2 Bft)
10.09.2014 16:58 17,6 C 16,7 C 71 % 1019,1 hPa 0,0 l/m 0 min 0 min 0,0 UV-I 0 W/m 8,4 km/h (2 Bft)
10.09.2014 17:00 17,6 C 16,7 C 71 % 1019,0 hPa 0,0 l/m 0 min 0 min 0,0 UV-I 0 W/m 14,6 km/h (3 Bft)
10.09.2014 17:02 17,6 C 16,7 C 71 % 1019,1 hPa 0,0 l/m 0 min 0 min 0,0 UV-I 0 W/m 10,5 km/h (2 Bft)
10.09.2014 17:04 17,6 C 16,7 C 71 % 1019,0 hPa 0,0 l/m 0 min 0 min 0,0 UV-I 0 W/m 18,8 km/h (3 Bft)
10.09.2014 17:06 17,6 C 16,7 C 71 % 1019,2 hPa 0,0 l/m 0 min 0 min 0,0 UV-I 0 W/m 25,1 km/h (4 Bft)
10.09.2014 17:08 17,6 C 16,7 C 72 % 1019,1 hPa 0,0 l/m 0 min 0 min 0,0 UV-I 0 W/m 25,1 km/h (4 Bft)
10.09.2014 17:10 17,6 C 16,1 C 73 % 1019,2 hPa 0,0 l/m 0 min 0 min 0,0 UV-I 0 W/m 23,0 km/h (4 Bft)
10.09.2014 17:12 17,5 C 16,1 C 73 % 1019,2 hPa 0,0 l/m 0 min 0 min 0,0 UV-I 0 W/m 23,0 km/h (4 Bft)
10.09.2014 17:14 17,4 C 16,1 C 74 % 1019,2 hPa 0,0 l/m 0 min 0 min 0,0 UV-I 0 W/m 23,0 km/h (4 Bft)
10.09.2014 17:16 17,3 C 16,1 C 74 % 1019,1 hPa 0,0 l/m 0 min 0 min 0,0 UV-I 0 W/m 16,7 km/h (3 Bft)
10.09.2014 17:18 17,2 C 15,6 C 74 % 1019,2 hPa 0,0 l/m 0 min 0 min 0,0 UV-I 0 W/m 23,0 km/h (4 Bft)
10.09.2014 17:20 17,1 C 15,6 C 74 % 1019,3 hPa 0,0 l/m 0 min 0 min 0,0 UV-I 0 W/m 20,9 km/h (4 Bft)
10.09.2014 17:22 17,0 C 15,6 C 74 % 1019,3 hPa 0,0 l/m 0 min 0 min 0,0 UV-I 0 W/m 18,8 km/h (3 Bft)
10.09.2014 17:24 16,9 C 15,6 C 74 % 1019,3 hPa 0,0 l/m 0 min 0 min 0,0 UV-I 0 W/m 18,8 km/h (3 Bft)
10.09.2014 17:26 16,9 C 15,6 C 75 % 1019,3 hPa 0,0 l/m 0 min 0 min 0,0 UV-I 0 W/m 18,8 km/h (3 Bft)
10.09.2014 17:28 16,8 C 15,6 C 75 % 1019,2 hPa 0,0 l/m 0 min 0 min 0,0 UV-I 0 W/m 16,7 km/h (3 Bft)
10.09.2014 17:30 16,8 C 15,0 C 75 % 1019,2 hPa 0,0 l/m 0 min 0 min 0,0 UV-I 0 W/m 16,7 km/h (3 Bft)
10.09.2014 17:32 16,7 C 15,0 C 75 % 1019,2 hPa 0,0 l/m 0 min 0 min 0,0 UV-I 0 W/m 16,7 km/h (3 Bft)
10.09.2014 17:34 16,7 C 15,0 C 75 % 1019,2 hPa 0,0 l/m 0 min 0 min 0,0 UV-I 0 W/m 14,6 km/h (3 Bft)
10.09.2014 17:36 16,6 C 15,0 C 75 % 1019,2 hPa 0,0 l/m 0 min 0 min 0,0 UV-I 0 W/m 14,6 km/h (3 Bft)
10.09.2014 17:38 16,5 C 15,0 C 76 % 1019,1 hPa 0,0 l/m 0 min 0 min 0,0 UV-I 0 W/m 14,6 km/h (3 Bft)
10.09.2014 17:40 16,5 C 15,0 C 76 % 1019,2 hPa 0,0 l/m 0 min 0 min 0,0 UV-I 0 W/m 16,7 km/h (3 Bft)
10.09.2014 17:42 16,4 C 15,0 C 76 % 1019,2 hPa 0,0 l/m 0 min 0 min 0,0 UV-I 0 W/m 16,7 km/h (3 Bft)
10.09.2014 17:44 16,4 C 15,0 C 76 % 1019,2 hPa 0,0 l/m 0 min 0 min 0,0 UV-I 0 W/m 16,7 km/h (3 Bft)
10.09.2014 17:46 16,4 C 15,0 C 76 % 1019,0 hPa 0,0 l/m 0 min 0 min 0,0 UV-I 0 W/m 14,6 km/h (3 Bft)
10.09.2014 17:48 16,3 C 15,0 C 76 % 1019,1 hPa 0,0 l/m 0 min 0 min 0,0 UV-I 0 W/m 14,6 km/h (3 Bft)
10.09.2014 17:50 16,3 C 15,0 C 77 % 1019,1 hPa 0,0 l/m 0 min 0 min 0,0 UV-I 0 W/m 10,5 km/h (2 Bft)
10.09.2014 17:52 16,3 C 15,0 C 77 % 1019,1 hPa 0,0 l/m 0 min 0 min 0,0 UV-I 0 W/m 14,6 km/h (3 Bft)
10.09.2014 17:54 16,3 C 15,0 C 77 % 1019,0 hPa 0,0 l/m 0 min 0 min 0,0 UV-I 0 W/m 8,4 km/h (2 Bft)
10.09.2014 17:56 16,3 C 15,0 C 78 % 1019,0 hPa 0,0 l/m 0 min 0 min 0,0 UV-I 0 W/m 10,5 km/h (2 Bft)
10.09.2014 17:58 16,3 C 15,0 C 78 % 1019,0 hPa 0,0 l/m 0 min 0 min 0,0 UV-I 0 W/m 14,6 km/h (3 Bft)
10.09.2014 18:00 16,3 C 15,0 C 78 % 1018,9 hPa 0,0 l/m 0 min 0 min 0,0 UV-I 0 W/m 10,5 km/h (2 Bft)
10.09.2014 18:02 16,3 C 15,0 C 78 % 1018,8 hPa 0,0 l/m 0 min 0 min 0,0 UV-I 0 W/m 10,5 km/h (2 Bft)
10.09.2014 18:06 16,2 C 15,0 C 78 % 1018,9 hPa 0,0 l/m 0 min 0 min 0,0 UV-I 0 W/m 8,4 km/h (2 Bft)
10.09.2014 18:08 16,2 C 15,0 C 79 % 1019,0 hPa 0,0 l/m 0 min 0 min 0,0 UV-I 0 W/m 8,4 km/h (2 Bft)
10.09.2014 18:10 16,2 C 15,0 C 79 % 1019,0 hPa 0,0 l/m 0 min 0 min 0,0 UV-I 0 W/m 10,5 km/h (2 Bft)
10.09.2014 18:12 16,2 C 15,0 C 79 % 1019,1 hPa 0,0 l/m 0 min 0 min 0,0 UV-I 0 W/m 8,4 km/h (2 Bft)
10.09.2014 18:14 16,2 C 15,0 C 79 % 1019,0 hPa 0,0 l/m 0 min 0 min 0,0 UV-I 0 W/m 12,6 km/h (3 Bft)
10.09.2014 18:16 16,2 C 15,0 C 79 % 1019,0 hPa 0,0 l/m 0 min 0 min 0,0 UV-I 0 W/m 12,6 km/h (3 Bft)
10.09.2014 18:18 16,2 C 15,0 C 79 % 1019,0 hPa 0,0 l/m 0 min 0 min 0,0 UV-I 0 W/m 10,5 km/h (2 Bft)
10.09.2014 18:20 16,2 C 15,0 C 79 % 1019,0 hPa 0,0 l/m 0 min 0 min 0,0 UV-I 0 W/m 10,5 km/h (2 Bft)
10.09.2014 18:22 16,3 C 15,6 C 79 % 1018,9 hPa 0,0 l/m 0 min 0 min 0,0 UV-I 0 W/m 10,5 km/h (2 Bft)
10.09.2014 18:24 16,3 C 15,6 C 79 % 1018,9 hPa 0,0 l/m 0 min 0 min 0,0 UV-I 0 W/m 8,4 km/h (2 Bft)
10.09.2014 18:26 16,3 C 15,6 C 79 % 1018,9 hPa 0,0 l/m 0 min 0 min 0,0 UV-I 0 W/m 10,5 km/h (2 Bft)
10.09.2014 18:28 16,3 C 15,6 C 79 % 1018,9 hPa 0,0 l/m 0 min 0 min 0,0 UV-I 0 W/m 10,5 km/h (2 Bft)
10.09.2014 18:30 16,3 C 15,6 C 79 % 1018,9 hPa 0,0 l/m 0 min 0 min 0,0 UV-I 0 W/m 8,4 km/h (2 Bft)
10.09.2014 18:32 16,3 C 15,6 C 79 % 1018,9 hPa 0,0 l/m 0 min 0 min 0,0 UV-I 0 W/m 8,4 km/h (2 Bft)
10.09.2014 18:34 16,3 C 15,6 C 79 % 1018,9 hPa 0,0 l/m 0 min 0 min 0,0 UV-I 0 W/m 8,4 km/h (2 Bft)
10.09.2014 18:36 16,3 C 15,6 C 79 % 1018,9 hPa 0,0 l/m 0 min 0 min 0,0 UV-I 0 W/m 8,4 km/h (2 Bft)
10.09.2014 18:38 16,3 C 15,6 C 79 % 1018,9 hPa 0,0 l/m 0 min 0 min 0,0 UV-I 0 W/m 0,0 km/h (0 Bft)
10.09.2014 18:40 16,3 C 15,6 C 79 % 1018,8 hPa 0,0 l/m 0 min 0 min 0,0 UV-I 0 W/m 0,0 km/h (0 Bft)
10.09.2014 18:42 16,3 C 15,6 C 79 % 1018,8 hPa 0,0 l/m 0 min 0 min 0,0 UV-I 0 W/m 12,6 km/h (3 Bft)
10.09.2014 18:44 16,3 C 15,6 C 79 % 1018,8 hPa 0,0 l/m 0 min 0 min 0,0 UV-I 0 W/m 10,5 km/h (2 Bft)
10.09.2014 18:46 16,3 C 15,6 C 79 % 1018,8 hPa 0,0 l/m 0 min 0 min 0,0 UV-I 0 W/m 12,6 km/h (3 Bft)
10.09.2014 18:48 16,3 C 15,6 C 79 % 1018,8 hPa 0,0 l/m 0 min 0 min 0,0 UV-I 0 W/m 4,2 km/h (1 Bft)
10.09.2014 18:50 16,3 C 15,6 C 79 % 1018,8 hPa 0,0 l/m 0 min 0 min 0,0 UV-I 0 W/m 8,4 km/h (2 Bft)
10.09.2014 18:52 16,3 C 15,6 C 79 % 1018,8 hPa 0,0 l/m 0 min 0 min 0,0 UV-I 0 W/m 8,4 km/h (2 Bft)
10.09.2014 18:54 16,3 C 15,6 C 79 % 1018,8 hPa 0,0 l/m 0 min 0 min 0,0 UV-I 0 W/m 10,5 km/h (2 Bft)
10.09.2014 18:56 16,4 C 15,6 C 79 % 1018,8 hPa 0,0 l/m 0 min 0 min 0,0 UV-I 0 W/m 8,4 km/h (2 Bft)
10.09.2014 18:58 16,3 C 15,6 C 78 % 1018,8 hPa 0,0 l/m 0 min 0 min 0,0 UV-I 0 W/m 12,6 km/h (3 Bft)
10.09.2014 19:00 16,3 C 15,6 C 78 % 1018,7 hPa 0,0 l/m 0 min 0 min 0,0 UV-I 0 W/m 12,6 km/h (3 Bft)
10.09.2014 19:02 16,3 C 15,6 C 78 % 1018,7 hPa 0,0 l/m 0 min 0 min 0,0 UV-I 0 W/m 12,6 km/h (3 Bft)
10.09.2014 19:04 16,3 C 15,6 C 78 % 1018,7 hPa 0,0 l/m 0 min 0 min 0,0 UV-I 0 W/m 12,6 km/h (3 Bft)
10.09.2014 19:06 16,3 C 15,0 C 78 % 1018,7 hPa 0,0 l/m 0 min 0 min 0,0 UV-I 0 W/m 8,4 km/h (2 Bft)
10.09.2014 19:08 16,3 C 15,0 C 78 % 1018,7 hPa 0,0 l/m 0 min 0 min 0,0 UV-I 0 W/m 12,6 km/h (3 Bft)
10.09.2014 19:10 16,3 C 15,0 C 78 % 1018,7 hPa 0,0 l/m 0 min 0 min 0,0 UV-I 0 W/m 14,6 km/h (3 Bft)
10.09.2014 19:12 16,3 C 15,0 C 78 % 1018,7 hPa 0,0 l/m 0 min 0 min 0,0 UV-I 0 W/m 12,6 km/h (3 Bft)
10.09.2014 19:14 16,3 C 15,0 C 78 % 1018,7 hPa 0,0 l/m 0 min 0 min 0,0 UV-I 0 W/m 12,6 km/h (3 Bft)
10.09.2014 19:16 16,3 C 15,0 C 78 % 1018,7 hPa 0,0 l/m 0 min 0 min 0,0 UV-I 0 W/m 8,4 km/h (2 Bft)
10.09.2014 19:18 16,3 C 15,0 C 78 % 1018,7 hPa 0,0 l/m 0 min 0 min 0,0 UV-I 0 W/m 8,4 km/h (2 Bft)
10.09.2014 19:20 16,3 C 15,0 C 78 % 1018,7 hPa 0,0 l/m 0 min 0 min 0,0 UV-I 0 W/m 8,4 km/h (2 Bft)
10.09.2014 19:22 16,3 C 15,0 C 78 % 1018,7 hPa 0,0 l/m 0 min 0 min 0,0 UV-I 0 W/m 6,3 km/h (2 Bft)
10.09.2014 19:24 16,3 C 15,0 C 78 % 1018,7 hPa 0,0 l/m 0 min 0 min 0,0 UV-I 0 W/m 10,5 km/h (2 Bft)
10.09.2014 19:26 16,3 C 15,0 C 78 % 1018,7 hPa 0,0 l/m 0 min 0 min 0,0 UV-I 0 W/m 2,1 km/h (1 Bft)
10.09.2014 19:28 16,3 C 15,0 C 78 % 1018,7 hPa 0,0 l/m 0 min 0 min 0,0 UV-I 0 W/m 10,5 km/h (2 Bft)
10.09.2014 19:30 16,3 C 15,0 C 79 % 1018,7 hPa 0,0 l/m 0 min 0 min 0,0 UV-I 0 W/m 8,4 km/h (2 Bft)
10.09.2014 19:32 16,3 C 15,0 C 79 % 1018,6 hPa 0,0 l/m 0 min 0 min 0,0 UV-I 0 W/m 8,4 km/h (2 Bft)
10.09.2014 19:34 16,3 C 15,0 C 79 % 1018,7 hPa 0,0 l/m 0 min 0 min 0,0 UV-I 0 W/m 6,3 km/h (2 Bft)
10.09.2014 19:36 16,3 C 15,0 C 79 % 1018,7 hPa 0,0 l/m 0 min 0 min 0,0 UV-I 0 W/m 4,2 km/h (1 Bft)
10.09.2014 19:38 16,2 C 15,0 C 79 % 1018,7 hPa 0,0 l/m 0 min 0 min 0,0 UV-I 0 W/m 8,4 km/h (2 Bft)
10.09.2014 19:40 16,2 C 15,0 C 79 % 1018,7 hPa 0,0 l/m 0 min 0 min 0,0 UV-I 0 W/m 0,0 km/h (0 Bft)
10.09.2014 19:42 16,2 C 15,0 C 79 % 1018,8 hPa 0,0 l/m 0 min 0 min 0,0 UV-I 0 W/m 2,1 km/h (1 Bft)
10.09.2014 19:44 16,2 C 15,0 C 79 % 1018,8 hPa 0,0 l/m 0 min 0 min 0,0 UV-I 0 W/m 2,1 km/h (1 Bft)
10.09.2014 19:46 16,2 C 15,0 C 79 % 1018,7 hPa 0,0 l/m 0 min 0 min 0,0 UV-I 0 W/m 6,3 km/h (2 Bft)
10.09.2014 19:48 16,2 C 15,0 C 79 % 1018,7 hPa 0,0 l/m 0 min 0 min 0,0 UV-I 0 W/m 6,3 km/h (2 Bft)
10.09.2014 19:50 16,2 C 15,0 C 80 % 1018,8 hPa 0,0 l/m 0 min 0 min 0,0 UV-I 0 W/m 4,2 km/h (1 Bft)
10.09.2014 19:52 16,2 C 15,0 C 80 % 1018,8 hPa 0,0 l/m 0 min 0 min 0,0 UV-I 0 W/m 2,1 km/h (1 Bft)
10.09.2014 19:54 16,2 C 15,0 C 80 % 1018,8 hPa 0,0 l/m 0 min 0 min 0,0 UV-I 0 W/m 4,2 km/h (1 Bft)
10.09.2014 19:56 16,1 C 15,0 C 80 % 1018,8 hPa 0,0 l/m 0 min 0 min 0,0 UV-I 0 W/m 0,0 km/h (0 Bft)
10.09.2014 19:58 16,1 C 15,0 C 80 % 1018,8 hPa 0,0 l/m 0 min 0 min 0,0 UV-I 0 W/m 0,0 km/h (0 Bft)
10.09.2014 20:00 16,1 C 14,4 C 80 % 1018,8 hPa 0,0 l/m 0 min 0 min 0,0 UV-I 0 W/m 6,3 km/h (2 Bft)
10.09.2014 20:02 16,1 C 14,4 C 80 % 1018,8 hPa 0,0 l/m 0 min 0 min 0,0 UV-I 0 W/m 6,3 km/h (2 Bft)
10.09.2014 20:04 16,1 C 15,0 C 80 % 1018,8 hPa 0,0 l/m 0 min 0 min 0,0 UV-I 0 W/m 8,4 km/h (2 Bft)
10.09.2014 20:06 16,1 C 14,4 C 81 % 1018,8 hPa 0,0 l/m 0 min 0 min 0,0 UV-I 0 W/m 8,4 km/h (2 Bft)
10.09.2014 20:08 16,1 C 14,4 C 81 % 1018,7 hPa 0,0 l/m 0 min 0 min 0,0 UV-I 0 W/m 6,3 km/h (2 Bft)
10.09.2014 20:10 16,1 C 14,4 C 81 % 1018,8 hPa 0,0 l/m 0 min 0 min 0,0 UV-I 0 W/m 8,4 km/h (2 Bft)
10.09.2014 20:12 16,0 C 14,4 C 81 % 1018,8 hPa 0,0 l/m 0 min 0 min 0,0 UV-I 0 W/m 10,5 km/h (2 Bft)
10.09.2014 20:14 16,0 C 14,4 C 81 % 1018,9 hPa 0,0 l/m 0 min 0 min 0,0 UV-I 0 W/m 10,5 km/h (2 Bft)
10.09.2014 20:16 15,9 C 14,4 C 81 % 1018,8 hPa 0,0 l/m 0 min 0 min 0,0 UV-I 0 W/m 10,5 km/h (2 Bft)
10.09.2014 20:18 15,9 C 14,4 C 81 % 1018,9 hPa 0,0 l/m 0 min 0 min 0,0 UV-I 0 W/m 10,5 km/h (2 Bft)
10.09.2014 20:20 15,9 C 14,4 C 81 % 1018,9 hPa 0,0 l/m 0 min 0 min 0,0 UV-I 0 W/m 10,5 km/h (2 Bft)
10.09.2014 20:22 15,9 C 14,4 C 81 % 1018,9 hPa 0,0 l/m 0 min 0 min 0,0 UV-I 0 W/m 8,4 km/h (2 Bft)
10.09.2014 20:24 15,9 C 14,4 C 81 % 1018,9 hPa 0,0 l/m 0 min 0 min 0,0 UV-I 0 W/m 8,4 km/h (2 Bft)
10.09.2014 20:26 15,9 C 14,4 C 81 % 1018,9 hPa 0,0 l/m 0 min 0 min 0,0 UV-I 0 W/m 8,4 km/h (2 Bft)
10.09.2014 20:28 15,8 C 14,4 C 81 % 1018,9 hPa 0,0 l/m 0 min 0 min 0,0 UV-I 0 W/m 12,6 km/h (3 Bft)
10.09.2014 20:30 15,8 C 14,4 C 81 % 1018,9 hPa 0,0 l/m 0 min 0 min 0,0 UV-I 0 W/m 8,4 km/h (2 Bft)
10.09.2014 20:32 15,8 C 14,4 C 81 % 1018,9 hPa 0,0 l/m 0 min 0 min 0,0 UV-I 0 W/m 10,5 km/h (2 Bft)
10.09.2014 20:34 15,8 C 14,4 C 81 % 1018,9 hPa 0,0 l/m 0 min 0 min 0,0 UV-I 0 W/m 0,0 km/h (0 Bft)
10.09.2014 20:36 15,8 C 14,4 C 81 % 1018,9 hPa 0,0 l/m 0 min 0 min 0,0 UV-I 0 W/m 8,4 km/h (2 Bft)
10.09.2014 20:38 15,8 C 14,4 C 81 % 1018,9 hPa 0,0 l/m 0 min 0 min 0,0 UV-I 0 W/m 10,5 km/h (2 Bft)
10.09.2014 20:40 15,8 C 14,4 C 81 % 1018,9 hPa 0,0 l/m 0 min 0 min 0,0 UV-I 0 W/m 0,0 km/h (0 Bft)
10.09.2014 20:42 15,8 C 14,4 C 81 % 1018,9 hPa 0,0 l/m 0 min 0 min 0,0 UV-I 0 W/m 0,0 km/h (0 Bft)
10.09.2014 20:44 15,8 C 14,4 C 81 % 1019,1 hPa 0,0 l/m 0 min 0 min 0,0 UV-I 0 W/m 8,4 km/h (2 Bft)
10.09.2014 20:46 15,7 C 14,4 C 81 % 1019,1 hPa 0,0 l/m 0 min 0 min 0,0 UV-I 0 W/m 6,3 km/h (2 Bft)
10.09.2014 20:48 15,7 C 14,4 C 81 % 1019,1 hPa 0,0 l/m 0 min 0 min 0,0 UV-I 0 W/m 8,4 km/h (2 Bft)
10.09.2014 20:50 15,7 C 14,4 C 81 % 1019,1 hPa 0,0 l/m 0 min 0 min 0,0 UV-I 0 W/m 8,4 km/h (2 Bft)
10.09.2014 20:52 15,7 C 13,9 C 81 % 1019,1 hPa 0,0 l/m 0 min 0 min 0,0 UV-I 0 W/m 10,5 km/h (2 Bft)
10.09.2014 20:54 15,7 C 13,9 C 81 % 1019,1 hPa 0,0 l/m 0 min 0 min 0,0 UV-I 0 W/m 8,4 km/h (2 Bft)
10.09.2014 20:56 15,6 C 13,9 C 81 % 1019,1 hPa 0,0 l/m 0 min 0 min 0,0 UV-I 0 W/m 8,4 km/h (2 Bft)
10.09.2014 20:58 15,6 C 13,9 C 81 % 1019,1 hPa 0,0 l/m 0 min 0 min 0,0 UV-I 0 W/m 8,4 km/h (2 Bft)
10.09.2014 21:00 15,6 C 13,9 C 81 % 1019,1 hPa 0,0 l/m 0 min 0 min 0,0 UV-I 0 W/m 8,4 km/h (2 Bft)
10.09.2014 21:02 15,5 C 13,9 C 81 % 1019,1 hPa 0,0 l/m 0 min 0 min 0,0 UV-I 0 W/m 6,3 km/h (2 Bft)
10.09.2014 21:04 15,5 C 13,9 C 82 % 1019,2 hPa 0,0 l/m 0 min 0 min 0,0 UV-I 0 W/m 6,3 km/h (2 Bft)
10.09.2014 21:06 15,5 C 13,9 C 82 % 1019,2 hPa 0,0 l/m 0 min 0 min 0,0 UV-I 0 W/m 0,0 km/h (0 Bft)
10.09.2014 21:08 15,4 C 13,9 C 82 % 1019,1 hPa 0,0 l/m 0 min 0 min 0,0 UV-I 0 W/m 6,3 km/h (2 Bft)
10.09.2014 21:10 15,4 C 13,9 C 82 % 1019,2 hPa 0,0 l/m 0 min 0 min 0,0 UV-I 0 W/m 0,0 km/h (0 Bft)
10.09.2014 21:12 15,4 C 13,9 C 82 % 1019,2 hPa 0,0 l/m 0 min 0 min 0,0 UV-I 0 W/m 2,1 km/h (1 Bft)
10.09.2014 21:14 15,4 C 13,9 C 82 % 1019,2 hPa 0,0 l/m 0 min 0 min 0,0 UV-I 0 W/m 0,0 km/h (0 Bft)
10.09.2014 21:16 15,4 C 13,9 C 82 % 1019,3 hPa 0,0 l/m 0 min 0 min 0,0 UV-I 0 W/m 0,0 km/h (0 Bft)
10.09.2014 21:18 15,3 C 13,9 C 82 % 1019,3 hPa 0,0 l/m 0 min 0 min 0,0 UV-I 0 W/m 6,3 km/h (2 Bft)
10.09.2014 21:20 15,3 C 13,9 C 82 % 1019,3 hPa 0,0 l/m 0 min 0 min 0,0 UV-I 0 W/m 4,2 km/h (1 Bft)
10.09.2014 21:22 15,3 C 13,9 C 82 % 1019,3 hPa 0,0 l/m 0 min 0 min 0,0 UV-I 0 W/m 4,2 km/h (1 Bft)
10.09.2014 21:24 15,3 C 13,9 C 82 % 1019,3 hPa 0,0 l/m 0 min 0 min 0,0 UV-I 0 W/m 2,1 km/h (1 Bft)
10.09.2014 21:26 15,3 C 13,9 C 83 % 1019,2 hPa 0,0 l/m 0 min 0 min 0,0 UV-I 0 W/m 0,0 km/h (0 Bft)
10.09.2014 21:28 15,3 C 13,9 C 83 % 1019,2 hPa 0,0 l/m 0 min 0 min 0,0 UV-I 0 W/m 0,0 km/h (0 Bft)
10.09.2014 21:30 15,2 C 13,9 C 83 % 1019,3 hPa 0,0 l/m 0 min 0 min 0,0 UV-I 0 W/m 0,0 km/h (0 Bft)
10.09.2014 21:32 15,2 C 13,9 C 83 % 1019,2 hPa 0,0 l/m 0 min 0 min 0,0 UV-I 0 W/m 0,0 km/h (0 Bft)
10.09.2014 21:34 15,2 C 13,9 C 83 % 1019,2 hPa 0,0 l/m 0 min 0 min 0,0 UV-I 0 W/m 0,0 km/h (0 Bft)
10.09.2014 21:36 15,2 C 13,9 C 83 % 1019,3 hPa 0,0 l/m 0 min 0 min 0,0 UV-I 0 W/m 0,0 km/h (0 Bft)
10.09.2014 21:38 15,2 C 13,9 C 83 % 1019,2 hPa 0,0 l/m 0 min 0 min 0,0 UV-I 0 W/m 0,0 km/h (0 Bft)
10.09.2014 21:40 15,2 C 13,9 C 83 % 1019,2 hPa 0,0 l/m 0 min 0 min 0,0 UV-I 0 W/m 2,1 km/h (1 Bft)
10.09.2014 21:42 15,2 C 13,9 C 83 % 1019,2 hPa 0,0 l/m 0 min 0 min 0,0 UV-I 0 W/m 6,3 km/h (2 Bft)
10.09.2014 21:44 15,1 C 13,9 C 83 % 1019,2 hPa 0,0 l/m 0 min 0 min 0,0 UV-I 0 W/m 2,1 km/h (1 Bft)
10.09.2014 21:46 15,1 C 13,9 C 84 % 1019,2 hPa 0,0 l/m 0 min 0 min 0,0 UV-I 0 W/m 2,1 km/h (1 Bft)
10.09.2014 21:48 15,1 C 13,9 C 84 % 1019,2 hPa 0,0 l/m 0 min 0 min 0,0 UV-I 0 W/m 4,2 km/h (1 Bft)
10.09.2014 21:50 15,1 C 13,9 C 84 % 1019,2 hPa 0,0 l/m 0 min 0 min 0,0 UV-I 0 W/m 4,2 km/h (1 Bft)
10.09.2014 21:52 15,1 C 13,9 C 84 % 1019,2 hPa 0,0 l/m 0 min 0 min 0,0 UV-I 0 W/m 10,5 km/h (2 Bft)
10.09.2014 21:54 15,1 C 13,9 C 84 % 1019,2 hPa 0,0 l/m 0 min 0 min 0,0 UV-I 0 W/m 8,4 km/h (2 Bft)
10.09.2014 21:56 15,1 C 13,9 C 84 % 1019,2 hPa 0,0 l/m 0 min 0 min 0,0 UV-I 0 W/m 8,4 km/h (2 Bft)
10.09.2014 21:58 15,0 C 13,9 C 84 % 1019,2 hPa 0,0 l/m 0 min 0 min 0,0 UV-I 0 W/m 0,0 km/h (0 Bft)
10.09.2014 22:00 15,0 C 13,9 C 84 % 1019,2 hPa 0,0 l/m 0 min 0 min 0,0 UV-I 0 W/m 6,3 km/h (2 Bft)
10.09.2014 22:02 15,0 C 13,9 C 84 % 1019,1 hPa 0,0 l/m 0 min 0 min 0,0 UV-I 0 W/m 4,2 km/h (1 Bft)
10.09.2014 22:04 15,0 C 13,9 C 84 % 1019,2 hPa 0,0 l/m 0 min 0 min 0,0 UV-I 0 W/m 2,1 km/h (1 Bft)
10.09.2014 22:06 15,0 C 13,9 C 84 % 1019,2 hPa 0,0 l/m 0 min 0 min 0,0 UV-I 0 W/m 0,0 km/h (0 Bft)
10.09.2014 22:08 14,9 C 13,9 C 84 % 1019,2 hPa 0,0 l/m 0 min 0 min 0,0 UV-I 0 W/m 2,1 km/h (1 Bft)
10.09.2014 22:10 15,0 C 13,9 C 84 % 1019,1 hPa 0,0 l/m 0 min 0 min 0,0 UV-I 0 W/m 4,2 km/h (1 Bft)
10.09.2014 22:12 14,9 C 13,9 C 84 % 1019,1 hPa 0,0 l/m 0 min 0 min 0,0 UV-I 0 W/m 8,4 km/h (2 Bft)
10.09.2014 22:14 14,9 C 13,9 C 84 % 1019,1 hPa 0,0 l/m 0 min 0 min 0,0 UV-I 0 W/m 8,4 km/h (2 Bft)
10.09.2014 22:16 14,9 C 13,9 C 85 % 1019,1 hPa 0,0 l/m 0 min 0 min 0,0 UV-I 0 W/m 6,3 km/h (2 Bft)
10.09.2014 22:18 14,9 C 13,9 C 85 % 1019,0 hPa 0,0 l/m 0 min 0 min 0,0 UV-I 0 W/m 2,1 km/h (1 Bft)
10.09.2014 22:20 14,9 C 13,9 C 85 % 1019,0 hPa 0,0 l/m 0 min 0 min 0,0 UV-I 0 W/m 8,4 km/h (2 Bft)
10.09.2014 22:22 14,9 C 13,9 C 85 % 1019,0 hPa 0,0 l/m 0 min 0 min 0,0 UV-I 0 W/m 6,3 km/h (2 Bft)
10.09.2014 22:24 14,9 C 13,9 C 85 % 1019,0 hPa 0,0 l/m 0 min 0 min 0,0 UV-I 0 W/m 8,4 km/h (2 Bft)
10.09.2014 22:26 14,9 C 13,9 C 85 % 1018,9 hPa 0,0 l/m 0 min 0 min 0,0 UV-I 0 W/m 6,3 km/h (2 Bft)
10.09.2014 22:28 14,9 C 13,3 C 85 % 1018,9 hPa 0,0 l/m 0 min 0 min 0,0 UV-I 0 W/m 6,3 km/h (2 Bft)
10.09.2014 22:30 14,9 C 13,3 C 85 % 1018,9 hPa 0,0 l/m 0 min 0 min 0,0 UV-I 0 W/m 2,1 km/h (1 Bft)
10.09.2014 22:32 14,8 C 13,3 C 85 % 1018,9 hPa 0,0 l/m 0 min 0 min 0,0 UV-I 0 W/m 6,3 km/h (2 Bft)
10.09.2014 22:34 14,8 C 13,3 C 85 % 1018,9 hPa 0,0 l/m 0 min 0 min 0,0 UV-I 0 W/m 2,1 km/h (1 Bft)
10.09.2014 22:36 14,8 C 13,3 C 85 % 1018,8 hPa 0,0 l/m 0 min 0 min 0,0 UV-I 0 W/m 8,4 km/h (2 Bft)
10.09.2014 22:38 14,8 C 13,3 C 85 % 1018,8 hPa 0,0 l/m 0 min 0 min 0,0 UV-I 0 W/m 4,2 km/h (1 Bft)
10.09.2014 22:40 14,8 C 13,3 C 85 % 1018,8 hPa 0,0 l/m 0 min 0 min 0,0 UV-I 0 W/m 0,0 km/h (0 Bft)
10.09.2014 22:42 14,8 C 13,3 C 85 % 1018,8 hPa 0,0 l/m 0 min 0 min 0,0 UV-I 0 W/m 0,0 km/h (0 Bft)
10.09.2014 22:44 14,7 C 12,8 C 85 % 1018,9 hPa 0,0 l/m 0 min 0 min 0,0 UV-I 0 W/m 0,0 km/h (0 Bft)
10.09.2014 22:46 14,7 C 12,8 C 85 % 1018,9 hPa 0,0 l/m 0 min 0 min 0,0 UV-I 0 W/m 0,0 km/h (0 Bft)
10.09.2014 22:48 14,7 C 12,8 C 85 % 1018,9 hPa 0,0 l/m 0 min 0 min 0,0 UV-I 0 W/m 0,0 km/h (0 Bft)
10.09.2014 22:50 14,7 C 12,8 C 85 % 1018,9 hPa 0,0 l/m 0 min 0 min 0,0 UV-I 0 W/m 0,0 km/h (0 Bft)
10.09.2014 22:52 14,6 C 12,8 C 85 % 1018,8 hPa 0,0 l/m 0 min 0 min 0,0 UV-I 0 W/m 0,0 km/h (0 Bft)
10.09.2014 22:54 14,6 C 12,8 C 85 % 1018,7 hPa 0,0 l/m 0 min 0 min 0,0 UV-I 0 W/m 2,1 km/h (1 Bft)
10.09.2014 22:56 14,6 C 12,8 C 85 % 1018,8 hPa 0,0 l/m 0 min 0 min 0,0 UV-I 0 W/m 0,0 km/h (0 Bft)
10.09.2014 22:58 14,6 C 12,2 C 85 % 1018,8 hPa 0,0 l/m 0 min 0 min 0,0 UV-I 0 W/m 0,0 km/h (0 Bft)
10.09.2014 23:00 14,5 C 12,2 C 85 % 1018,8 hPa 0,0 l/m 0 min 0 min 0,0 UV-I 0 W/m 0,0 km/h (0 Bft)
10.09.2014 23:02 14,4 C 12,2 C 85 % 1018,9 hPa 0,0 l/m 0 min 0 min 0,0 UV-I 0 W/m 0,0 km/h (0 Bft)
10.09.2014 23:04 14,4 C 12,2 C 85 % 1018,8 hPa 0,0 l/m 0 min 0 min 0,0 UV-I 0 W/m 0,0 km/h (0 Bft)
10.09.2014 23:06 14,4 C 12,2 C 85 % 1018,9 hPa 0,0 l/m 0 min 0 min 0,0 UV-I 0 W/m 0,0 km/h (0 Bft)
10.09.2014 23:08 14,3 C 12,2 C 85 % 1018,8 hPa 0,0 l/m 0 min 0 min 0,0 UV-I 0 W/m 0,0 km/h (0 Bft)
10.09.2014 23:10 14,3 C 11,7 C 85 % 1018,8 hPa 0,0 l/m 0 min 0 min 0,0 UV-I 0 W/m 0,0 km/h (0 Bft)
10.09.2014 23:12 14,2 C 11,7 C 85 % 1018,8 hPa 0,0 l/m 0 min 0 min 0,0 UV-I 0 W/m 0,0 km/h (0 Bft)
10.09.2014 23:14 14,2 C 11,7 C 85 % 1018,9 hPa 0,0 l/m 0 min 0 min 0,0 UV-I 0 W/m 0,0 km/h (0 Bft)
10.09.2014 23:16 14,2 C 11,7 C 85 % 1018,9 hPa 0,0 l/m 0 min 0 min 0,0 UV-I 0 W/m 0,0 km/h (0 Bft)
10.09.2014 23:18 14,2 C 11,7 C 85 % 1018,9 hPa 0,0 l/m 0 min 0 min 0,0 UV-I 0 W/m 0,0 km/h (0 Bft)
10.09.2014 23:20 14,2 C 11,7 C 85 % 1018,9 hPa 0,0 l/m 0 min 0 min 0,0 UV-I 0 W/m 0,0 km/h (0 Bft)
10.09.2014 23:22 14,2 C 11,7 C 85 % 1018,8 hPa 0,0 l/m 0 min 0 min 0,0 UV-I 0 W/m 0,0 km/h (0 Bft)
10.09.2014 23:24 14,2 C 11,7 C 85 % 1018,8 hPa 0,0 l/m 0 min 0 min 0,0 UV-I 0 W/m 0,0 km/h (0 Bft)
10.09.2014 23:26 14,1 C 11,1 C 85 % 1018,9 hPa 0,0 l/m 0 min 0 min 0,0 UV-I 0 W/m 0,0 km/h (0 Bft)
10.09.2014 23:28 14,0 C 11,1 C 85 % 1018,8 hPa 0,0 l/m 0 min 0 min 0,0 UV-I 0 W/m 0,0 km/h (0 Bft)
10.09.2014 23:30 13,9 C 11,1 C 85 % 1018,9 hPa 0,0 l/m 0 min 0 min 0,0 UV-I 0 W/m 0,0 km/h (0 Bft)
10.09.2014 23:32 13,9 C 11,1 C 85 % 1018,9 hPa 0,0 l/m 0 min 0 min 0,0 UV-I 0 W/m 0,0 km/h (0 Bft)
10.09.2014 23:34 13,8 C 11,1 C 85 % 1018,9 hPa 0,0 l/m 0 min 0 min 0,0 UV-I 0 W/m 0,0 km/h (0 Bft)
10.09.2014 23:36 13,8 C 11,1 C 86 % 1018,9 hPa 0,0 l/m 0 min 0 min 0,0 UV-I 0 W/m 0,0 km/h (0 Bft)
10.09.2014 23:38 13,7 C 11,1 C 86 % 1018,9 hPa 0,0 l/m 0 min 0 min 0,0 UV-I 0 W/m 0,0 km/h (0 Bft)
10.09.2014 23:40 13,7 C 11,1 C 86 % 1018,9 hPa 0,0 l/m 0 min 0 min 0,0 UV-I 0 W/m 0,0 km/h (0 Bft)
10.09.2014 23:42 13,6 C 11,1 C 86 % 1018,8 hPa 0,0 l/m 0 min 0 min 0,0 UV-I 0 W/m 0,0 km/h (0 Bft)
10.09.2014 23:44 13,6 C 11,1 C 86 % 1018,8 hPa 0,0 l/m 0 min 0 min 0,0 UV-I 0 W/m 0,0 km/h (0 Bft)
10.09.2014 23:46 13,5 C 11,1 C 86 % 1018,8 hPa 0,0 l/m 0 min 0 min 0,0 UV-I 0 W/m 0,0 km/h (0 Bft)
10.09.2014 23:48 13,5 C 11,1 C 86 % 1018,9 hPa 0,0 l/m 0 min 0 min 0,0 UV-I 0 W/m 0,0 km/h (0 Bft)
10.09.2014 23:50 13,4 C 10,6 C 86 % 1018,8 hPa 0,0 l/m 0 min 0 min 0,0 UV-I 0 W/m 0,0 km/h (0 Bft)
10.09.2014 23:52 13,4 C 10,6 C 87 % 1018,8 hPa 0,0 l/m 0 min 0 min 0,0 UV-I 0 W/m 0,0 km/h (0 Bft)
10.09.2014 23:54 13,3 C 11,1 C 87 % 1018,9 hPa 0,0 l/m 0 min 0 min 0,0 UV-I 0 W/m 0,0 km/h (0 Bft)
10.09.2014 23:56 13,3 C 11,1 C 87 % 1018,8 hPa 0,0 l/m 0 min 0 min 0,0 UV-I 0 W/m 0,0 km/h (0 Bft)
10.09.2014 23:58 13,3 C 11,1 C 87 % 1018,9 hPa 0,0 l/m 0 min 0 min 0,0 UV-I 0 W/m 0,0 km/h (0 Bft)
_ Min-Zeit 07:32 23:50 12:44 19:32 - - - - - 00:06
Minimum _ 12,8 C 10,6 C 64 % 1018,6 hPa - - - - - 0,0 km/h (0 Bft)
_ Max-Zeit 15:22 12:20 07:00 00:56 00:00 00:00 00:00 00:00 00:00 13:54
Maximum _ 18,1 C 18,3 C 94 % 1020,5 hPa 0,0 l/m 0 min 0 min 0,0 UV-I 0 W/m 25,1 km/h
N (4 Bft)
Durchschnitt _ 15,1 C 14,2 C 82 % 1019,7 hPa #0,0 l/m #0 min. #0 min. 0,0 UV-I 0 W/m 6,3 km/h (2 Bft)
© 2014 W. Hausmann